<?xml version="1.0" encoding="UTF-8" standalone="no" ?>
<gpx xmlns="http://www.topografix.com/GPX/1/1" xmlns:xsi="http://www.w3.org/2001/XMLSchema-instance" xsi:schemaLocation="http://www.topografix.com/GPX/1/1 http://www.topografix.com/GPX/1/1/gpx.xsd" version="1.1" creator="VisuGPX - https://www.visugpx.com">
  <metadata>
    <name>Thézac</name>
  </metadata>
  <trk>
    <name><![CDATA[2021-05-13 17:14:54]]></name>
    <trkseg>
      <trkpt lat="44.43" lon="1.01616">
        <ele>236.62</ele>
        <time>2021-05-13T12:30:00Z</time>
      </trkpt>
      <trkpt lat="44.43001" lon="1.01617">
        <ele>236.62</ele>
        <time>2021-05-13T12:30:14Z</time>
      </trkpt>
      <trkpt lat="44.43002" lon="1.01618">
        <ele>236.62</ele>
        <time>2021-05-13T12:30:42Z</time>
      </trkpt>
      <trkpt lat="44.43001" lon="1.01619">
        <ele>236.62</ele>
        <time>2021-05-13T12:30:54Z</time>
      </trkpt>
      <trkpt lat="44.43005" lon="1.0162">
        <ele>236.62</ele>
        <time>2021-05-13T12:30:57Z</time>
      </trkpt>
      <trkpt lat="44.43024" lon="1.01628">
        <ele>236.62</ele>
        <time>2021-05-13T12:31:14Z</time>
      </trkpt>
      <trkpt lat="44.43045" lon="1.01628">
        <ele>236.62</ele>
        <time>2021-05-13T12:31:32Z</time>
      </trkpt>
      <trkpt lat="44.43065" lon="1.01616">
        <ele>236.14</ele>
        <time>2021-05-13T12:31:51Z</time>
      </trkpt>
      <trkpt lat="44.43089" lon="1.01595">
        <ele>236.14</ele>
        <time>2021-05-13T12:32:10Z</time>
      </trkpt>
      <trkpt lat="44.43093" lon="1.01595">
        <ele>236.14</ele>
        <time>2021-05-13T12:32:13Z</time>
      </trkpt>
      <trkpt lat="44.431" lon="1.01597">
        <ele>237.58</ele>
        <time>2021-05-13T12:32:18Z</time>
      </trkpt>
      <trkpt lat="44.43128" lon="1.01619">
        <ele>238.06</ele>
        <time>2021-05-13T12:32:40Z</time>
      </trkpt>
      <trkpt lat="44.43152" lon="1.01636">
        <ele>238.54</ele>
        <time>2021-05-13T12:32:57Z</time>
      </trkpt>
      <trkpt lat="44.43175" lon="1.01656">
        <ele>239.51</ele>
        <time>2021-05-13T12:33:16Z</time>
      </trkpt>
      <trkpt lat="44.432" lon="1.01678">
        <ele>239.99</ele>
        <time>2021-05-13T12:33:36Z</time>
      </trkpt>
      <trkpt lat="44.43229" lon="1.01681">
        <ele>240.47</ele>
        <time>2021-05-13T12:33:54Z</time>
      </trkpt>
      <trkpt lat="44.43257" lon="1.01666">
        <ele>240.95</ele>
        <time>2021-05-13T12:34:14Z</time>
      </trkpt>
      <trkpt lat="44.43282" lon="1.01648">
        <ele>241.43</ele>
        <time>2021-05-13T12:34:33Z</time>
      </trkpt>
      <trkpt lat="44.43309" lon="1.01631">
        <ele>242.39</ele>
        <time>2021-05-13T12:34:52Z</time>
      </trkpt>
      <trkpt lat="44.43331" lon="1.01616">
        <ele>242.87</ele>
        <time>2021-05-13T12:35:08Z</time>
      </trkpt>
      <trkpt lat="44.43358" lon="1.01595">
        <ele>243.35</ele>
        <time>2021-05-13T12:35:28Z</time>
      </trkpt>
      <trkpt lat="44.43378" lon="1.01577">
        <ele>243.83</ele>
        <time>2021-05-13T12:35:44Z</time>
      </trkpt>
      <trkpt lat="44.43399" lon="1.01561">
        <ele>242.39</ele>
        <time>2021-05-13T12:35:59Z</time>
      </trkpt>
      <trkpt lat="44.43424" lon="1.0157">
        <ele>240.47</ele>
        <time>2021-05-13T12:36:15Z</time>
      </trkpt>
      <trkpt lat="44.43448" lon="1.01596">
        <ele>239.02</ele>
        <time>2021-05-13T12:36:34Z</time>
      </trkpt>
      <trkpt lat="44.43468" lon="1.01627">
        <ele>238.54</ele>
        <time>2021-05-13T12:36:54Z</time>
      </trkpt>
      <trkpt lat="44.43488" lon="1.0166">
        <ele>237.58</ele>
        <time>2021-05-13T12:37:13Z</time>
      </trkpt>
      <trkpt lat="44.4351" lon="1.01678">
        <ele>236.14</ele>
        <time>2021-05-13T12:37:29Z</time>
      </trkpt>
      <trkpt lat="44.4352" lon="1.01682">
        <ele>235.66</ele>
        <time>2021-05-13T12:37:35Z</time>
      </trkpt>
      <trkpt lat="44.4355" lon="1.01676">
        <ele>234.22</ele>
        <time>2021-05-13T12:37:54Z</time>
      </trkpt>
      <trkpt lat="44.43588" lon="1.0166">
        <ele>233.26</ele>
        <time>2021-05-13T12:38:20Z</time>
      </trkpt>
      <trkpt lat="44.43599" lon="1.01635">
        <ele>231.81</ele>
        <time>2021-05-13T12:38:35Z</time>
      </trkpt>
      <trkpt lat="44.43601" lon="1.01586">
        <ele>230.85</ele>
        <time>2021-05-13T12:38:57Z</time>
      </trkpt>
      <trkpt lat="44.43605" lon="1.01548">
        <ele>228.45</ele>
        <time>2021-05-13T12:39:14Z</time>
      </trkpt>
      <trkpt lat="44.43612" lon="1.01518">
        <ele>224.61</ele>
        <time>2021-05-13T12:39:28Z</time>
      </trkpt>
      <trkpt lat="44.43619" lon="1.01492">
        <ele>221.24</ele>
        <time>2021-05-13T12:39:41Z</time>
      </trkpt>
      <trkpt lat="44.43624" lon="1.01456">
        <ele>217.88</ele>
        <time>2021-05-13T12:39:59Z</time>
      </trkpt>
      <trkpt lat="44.43635" lon="1.01427">
        <ele>215.47</ele>
        <time>2021-05-13T12:40:18Z</time>
      </trkpt>
      <trkpt lat="44.43636" lon="1.01425">
        <ele>215.47</ele>
        <time>2021-05-13T12:40:20Z</time>
      </trkpt>
      <trkpt lat="44.4364" lon="1.01398">
        <ele>212.11</ele>
        <time>2021-05-13T12:40:34Z</time>
      </trkpt>
      <trkpt lat="44.43641" lon="1.0139">
        <ele>211.63</ele>
        <time>2021-05-13T12:40:42Z</time>
      </trkpt>
      <trkpt lat="44.43642" lon="1.01387">
        <ele>210.67</ele>
        <time>2021-05-13T12:40:44Z</time>
      </trkpt>
      <trkpt lat="44.43645" lon="1.01361">
        <ele>207.78</ele>
        <time>2021-05-13T12:40:58Z</time>
      </trkpt>
      <trkpt lat="44.4365" lon="1.01339">
        <ele>204.42</ele>
        <time>2021-05-13T12:41:11Z</time>
      </trkpt>
      <trkpt lat="44.43652" lon="1.01327">
        <ele>203.46</ele>
        <time>2021-05-13T12:41:17Z</time>
      </trkpt>
      <trkpt lat="44.43652" lon="1.0132">
        <ele>202.49</ele>
        <time>2021-05-13T12:41:20Z</time>
      </trkpt>
      <trkpt lat="44.43656" lon="1.0131">
        <ele>201.05</ele>
        <time>2021-05-13T12:41:26Z</time>
      </trkpt>
      <trkpt lat="44.43658" lon="1.01303">
        <ele>200.09</ele>
        <time>2021-05-13T12:41:30Z</time>
      </trkpt>
      <trkpt lat="44.43658" lon="1.01295">
        <ele>199.13</ele>
        <time>2021-05-13T12:41:34Z</time>
      </trkpt>
      <trkpt lat="44.43664" lon="1.01273">
        <ele>195.28</ele>
        <time>2021-05-13T12:41:47Z</time>
      </trkpt>
      <trkpt lat="44.43675" lon="1.01253">
        <ele>193.36</ele>
        <time>2021-05-13T12:42:00Z</time>
      </trkpt>
      <trkpt lat="44.43679" lon="1.0125">
        <ele>192.4</ele>
        <time>2021-05-13T12:42:03Z</time>
      </trkpt>
      <trkpt lat="44.43693" lon="1.01235">
        <ele>188.56</ele>
        <time>2021-05-13T12:42:14Z</time>
      </trkpt>
      <trkpt lat="44.43708" lon="1.01218">
        <ele>186.15</ele>
        <time>2021-05-13T12:42:27Z</time>
      </trkpt>
      <trkpt lat="44.43725" lon="1.01201">
        <ele>183.75</ele>
        <time>2021-05-13T12:42:42Z</time>
      </trkpt>
      <trkpt lat="44.43729" lon="1.01196">
        <ele>183.27</ele>
        <time>2021-05-13T12:42:46Z</time>
      </trkpt>
      <trkpt lat="44.43748" lon="1.01177">
        <ele>179.9</ele>
        <time>2021-05-13T12:43:00Z</time>
      </trkpt>
      <trkpt lat="44.43754" lon="1.01168">
        <ele>178.94</ele>
        <time>2021-05-13T12:43:06Z</time>
      </trkpt>
      <trkpt lat="44.43771" lon="1.01153">
        <ele>175.58</ele>
        <time>2021-05-13T12:43:19Z</time>
      </trkpt>
      <trkpt lat="44.43783" lon="1.01134">
        <ele>172.69</ele>
        <time>2021-05-13T12:43:32Z</time>
      </trkpt>
      <trkpt lat="44.43787" lon="1.01129">
        <ele>171.73</ele>
        <time>2021-05-13T12:43:37Z</time>
      </trkpt>
      <trkpt lat="44.43806" lon="1.01129">
        <ele>169.33</ele>
        <time>2021-05-13T12:43:50Z</time>
      </trkpt>
      <trkpt lat="44.43825" lon="1.01129">
        <ele>167.89</ele>
        <time>2021-05-13T12:44:03Z</time>
      </trkpt>
      <trkpt lat="44.43832" lon="1.01132">
        <ele>167.41</ele>
        <time>2021-05-13T12:44:08Z</time>
      </trkpt>
      <trkpt lat="44.43835" lon="1.01124">
        <ele>167.41</ele>
        <time>2021-05-13T12:44:17Z</time>
      </trkpt>
      <trkpt lat="44.43828" lon="1.011">
        <ele>166.45</ele>
        <time>2021-05-13T12:44:31Z</time>
      </trkpt>
      <trkpt lat="44.43818" lon="1.01082">
        <ele>165.96</ele>
        <time>2021-05-13T12:44:43Z</time>
      </trkpt>
      <trkpt lat="44.43806" lon="1.01067">
        <ele>165</ele>
        <time>2021-05-13T12:44:53Z</time>
      </trkpt>
      <trkpt lat="44.43806" lon="1.01029">
        <ele>165.96</ele>
        <time>2021-05-13T12:45:11Z</time>
      </trkpt>
      <trkpt lat="44.43807" lon="1.00999">
        <ele>165</ele>
        <time>2021-05-13T12:45:27Z</time>
      </trkpt>
      <trkpt lat="44.43807" lon="1.00993">
        <ele>164.52</ele>
        <time>2021-05-13T12:45:30Z</time>
      </trkpt>
      <trkpt lat="44.43803" lon="1.00962">
        <ele>164.52</ele>
        <time>2021-05-13T12:45:44Z</time>
      </trkpt>
      <trkpt lat="44.43798" lon="1.00924">
        <ele>164.04</ele>
        <time>2021-05-13T12:46:01Z</time>
      </trkpt>
      <trkpt lat="44.43784" lon="1.00891">
        <ele>162.12</ele>
        <time>2021-05-13T12:46:19Z</time>
      </trkpt>
      <trkpt lat="44.43771" lon="1.00864">
        <ele>160.68</ele>
        <time>2021-05-13T12:46:35Z</time>
      </trkpt>
      <trkpt lat="44.43772" lon="1.00862">
        <ele>160.2</ele>
        <time>2021-05-13T12:46:46Z</time>
      </trkpt>
      <trkpt lat="44.43772" lon="1.0086">
        <ele>158.75</ele>
        <time>2021-05-13T12:47:04Z</time>
      </trkpt>
      <trkpt lat="44.43773" lon="1.0086">
        <ele>159.72</ele>
        <time>2021-05-13T12:47:28Z</time>
      </trkpt>
      <trkpt lat="44.43773" lon="1.00859">
        <ele>159.72</ele>
        <time>2021-05-13T12:47:44Z</time>
      </trkpt>
      <trkpt lat="44.43773" lon="1.00859">
        <ele>159.72</ele>
        <time>2021-05-13T12:47:59Z</time>
      </trkpt>
      <trkpt lat="44.43777" lon="1.00861">
        <ele>159.72</ele>
        <time>2021-05-13T12:48:03Z</time>
      </trkpt>
      <trkpt lat="44.43781" lon="1.00867">
        <ele>162.6</ele>
        <time>2021-05-13T12:48:14Z</time>
      </trkpt>
      <trkpt lat="44.43781" lon="1.00867">
        <ele>161.16</ele>
        <time>2021-05-13T12:48:16Z</time>
      </trkpt>
      <trkpt lat="44.43782" lon="1.0087">
        <ele>160.2</ele>
        <time>2021-05-13T12:48:20Z</time>
      </trkpt>
      <trkpt lat="44.43786" lon="1.0088">
        <ele>161.64</ele>
        <time>2021-05-13T12:48:27Z</time>
      </trkpt>
      <trkpt lat="44.43793" lon="1.00888">
        <ele>164.04</ele>
        <time>2021-05-13T12:48:35Z</time>
      </trkpt>
      <trkpt lat="44.43795" lon="1.00892">
        <ele>164.52</ele>
        <time>2021-05-13T12:48:38Z</time>
      </trkpt>
      <trkpt lat="44.43806" lon="1.00909">
        <ele>166.45</ele>
        <time>2021-05-13T12:48:52Z</time>
      </trkpt>
      <trkpt lat="44.43811" lon="1.00908">
        <ele>167.89</ele>
        <time>2021-05-13T12:48:59Z</time>
      </trkpt>
      <trkpt lat="44.43807" lon="1.00884">
        <ele>169.81</ele>
        <time>2021-05-13T12:49:15Z</time>
      </trkpt>
      <trkpt lat="44.43802" lon="1.0085">
        <ele>171.73</ele>
        <time>2021-05-13T12:49:35Z</time>
      </trkpt>
      <trkpt lat="44.43802" lon="1.00822">
        <ele>173.66</ele>
        <time>2021-05-13T12:49:51Z</time>
      </trkpt>
      <trkpt lat="44.43802" lon="1.00818">
        <ele>174.14</ele>
        <time>2021-05-13T12:49:53Z</time>
      </trkpt>
      <trkpt lat="44.43806" lon="1.00797">
        <ele>175.58</ele>
        <time>2021-05-13T12:50:06Z</time>
      </trkpt>
      <trkpt lat="44.43806" lon="1.00783">
        <ele>176.54</ele>
        <time>2021-05-13T12:50:14Z</time>
      </trkpt>
      <trkpt lat="44.43808" lon="1.0078">
        <ele>177.02</ele>
        <time>2021-05-13T12:50:16Z</time>
      </trkpt>
      <trkpt lat="44.4381" lon="1.00781">
        <ele>177.5</ele>
        <time>2021-05-13T12:50:18Z</time>
      </trkpt>
      <trkpt lat="44.43811" lon="1.00788">
        <ele>178.46</ele>
        <time>2021-05-13T12:50:23Z</time>
      </trkpt>
      <trkpt lat="44.43814" lon="1.00796">
        <ele>179.42</ele>
        <time>2021-05-13T12:50:28Z</time>
      </trkpt>
      <trkpt lat="44.43821" lon="1.00815">
        <ele>182.31</ele>
        <time>2021-05-13T12:50:42Z</time>
      </trkpt>
      <trkpt lat="44.43823" lon="1.00812">
        <ele>182.31</ele>
        <time>2021-05-13T12:50:44Z</time>
      </trkpt>
      <trkpt lat="44.43823" lon="1.00809">
        <ele>182.79</ele>
        <time>2021-05-13T12:50:46Z</time>
      </trkpt>
      <trkpt lat="44.43826" lon="1.00785">
        <ele>183.75</ele>
        <time>2021-05-13T12:51:00Z</time>
      </trkpt>
      <trkpt lat="44.4383" lon="1.00755">
        <ele>185.67</ele>
        <time>2021-05-13T12:51:17Z</time>
      </trkpt>
      <trkpt lat="44.43835" lon="1.00721">
        <ele>188.56</ele>
        <time>2021-05-13T12:51:37Z</time>
      </trkpt>
      <trkpt lat="44.4384" lon="1.00689">
        <ele>190.48</ele>
        <time>2021-05-13T12:51:55Z</time>
      </trkpt>
      <trkpt lat="44.43844" lon="1.0066">
        <ele>192.4</ele>
        <time>2021-05-13T12:52:11Z</time>
      </trkpt>
      <trkpt lat="44.43845" lon="1.00627">
        <ele>194.8</ele>
        <time>2021-05-13T12:52:29Z</time>
      </trkpt>
      <trkpt lat="44.43844" lon="1.00591">
        <ele>198.17</ele>
        <time>2021-05-13T12:52:49Z</time>
      </trkpt>
      <trkpt lat="44.4384" lon="1.00555">
        <ele>200.57</ele>
        <time>2021-05-13T12:53:10Z</time>
      </trkpt>
      <trkpt lat="44.4384" lon="1.00554">
        <ele>200.57</ele>
        <time>2021-05-13T12:53:11Z</time>
      </trkpt>
      <trkpt lat="44.43848" lon="1.00539">
        <ele>204.9</ele>
        <time>2021-05-13T12:53:26Z</time>
      </trkpt>
      <trkpt lat="44.43849" lon="1.00537">
        <ele>204.9</ele>
        <time>2021-05-13T12:53:28Z</time>
      </trkpt>
      <trkpt lat="44.43854" lon="1.00528">
        <ele>206.34</ele>
        <time>2021-05-13T12:53:36Z</time>
      </trkpt>
      <trkpt lat="44.43858" lon="1.00523">
        <ele>206.82</ele>
        <time>2021-05-13T12:53:40Z</time>
      </trkpt>
      <trkpt lat="44.43861" lon="1.00518">
        <ele>207.3</ele>
        <time>2021-05-13T12:53:44Z</time>
      </trkpt>
      <trkpt lat="44.43867" lon="1.00498">
        <ele>208.26</ele>
        <time>2021-05-13T12:53:57Z</time>
      </trkpt>
      <trkpt lat="44.43864" lon="1.00482">
        <ele>206.82</ele>
        <time>2021-05-13T12:54:05Z</time>
      </trkpt>
      <trkpt lat="44.43861" lon="1.00453">
        <ele>203.94</ele>
        <time>2021-05-13T12:54:21Z</time>
      </trkpt>
      <trkpt lat="44.43854" lon="1.00438">
        <ele>202.49</ele>
        <time>2021-05-13T12:54:30Z</time>
      </trkpt>
      <trkpt lat="44.43848" lon="1.00408">
        <ele>199.61</ele>
        <time>2021-05-13T12:54:46Z</time>
      </trkpt>
      <trkpt lat="44.43848" lon="1.00398">
        <ele>198.17</ele>
        <time>2021-05-13T12:54:51Z</time>
      </trkpt>
      <trkpt lat="44.43847" lon="1.00374">
        <ele>195.28</ele>
        <time>2021-05-13T12:55:02Z</time>
      </trkpt>
      <trkpt lat="44.4385" lon="1.0036">
        <ele>194.32</ele>
        <time>2021-05-13T12:55:10Z</time>
      </trkpt>
      <trkpt lat="44.43854" lon="1.00342">
        <ele>192.4</ele>
        <time>2021-05-13T12:55:21Z</time>
      </trkpt>
      <trkpt lat="44.43851" lon="1.00319">
        <ele>189.04</ele>
        <time>2021-05-13T12:55:33Z</time>
      </trkpt>
      <trkpt lat="44.43847" lon="1.00295">
        <ele>185.67</ele>
        <time>2021-05-13T12:55:46Z</time>
      </trkpt>
      <trkpt lat="44.43847" lon="1.00274">
        <ele>183.75</ele>
        <time>2021-05-13T12:55:57Z</time>
      </trkpt>
      <trkpt lat="44.43849" lon="1.0027">
        <ele>182.79</ele>
        <time>2021-05-13T12:56:00Z</time>
      </trkpt>
      <trkpt lat="44.43853" lon="1.0027">
        <ele>182.79</ele>
        <time>2021-05-13T12:56:03Z</time>
      </trkpt>
      <trkpt lat="44.4386" lon="1.00272">
        <ele>181.83</ele>
        <time>2021-05-13T12:56:09Z</time>
      </trkpt>
      <trkpt lat="44.43865" lon="1.00269">
        <ele>180.38</ele>
        <time>2021-05-13T12:56:15Z</time>
      </trkpt>
      <trkpt lat="44.4387" lon="1.00263">
        <ele>178.46</ele>
        <time>2021-05-13T12:56:23Z</time>
      </trkpt>
      <trkpt lat="44.43874" lon="1.00251">
        <ele>174.62</ele>
        <time>2021-05-13T12:56:34Z</time>
      </trkpt>
      <trkpt lat="44.43878" lon="1.00251">
        <ele>174.14</ele>
        <time>2021-05-13T12:56:37Z</time>
      </trkpt>
      <trkpt lat="44.43883" lon="1.0025">
        <ele>171.73</ele>
        <time>2021-05-13T12:56:41Z</time>
      </trkpt>
      <trkpt lat="44.43895" lon="1.00253">
        <ele>167.41</ele>
        <time>2021-05-13T12:56:55Z</time>
      </trkpt>
      <trkpt lat="44.43902" lon="1.00249">
        <ele>164.04</ele>
        <time>2021-05-13T12:57:06Z</time>
      </trkpt>
      <trkpt lat="44.43903" lon="1.00248">
        <ele>163.08</ele>
        <time>2021-05-13T12:57:07Z</time>
      </trkpt>
      <trkpt lat="44.43913" lon="1.00251">
        <ele>159.72</ele>
        <time>2021-05-13T12:57:19Z</time>
      </trkpt>
      <trkpt lat="44.43916" lon="1.00249">
        <ele>158.27</ele>
        <time>2021-05-13T12:57:25Z</time>
      </trkpt>
      <trkpt lat="44.43923" lon="1.00248">
        <ele>154.91</ele>
        <time>2021-05-13T12:57:33Z</time>
      </trkpt>
      <trkpt lat="44.43925" lon="1.00248">
        <ele>153.47</ele>
        <time>2021-05-13T12:57:37Z</time>
      </trkpt>
      <trkpt lat="44.43928" lon="1.00248">
        <ele>152.99</ele>
        <time>2021-05-13T12:57:40Z</time>
      </trkpt>
      <trkpt lat="44.43945" lon="1.00247">
        <ele>151.06</ele>
        <time>2021-05-13T12:57:55Z</time>
      </trkpt>
      <trkpt lat="44.43952" lon="1.00249">
        <ele>151.06</ele>
        <time>2021-05-13T12:58:00Z</time>
      </trkpt>
      <trkpt lat="44.4396" lon="1.00263">
        <ele>151.06</ele>
        <time>2021-05-13T12:58:08Z</time>
      </trkpt>
      <trkpt lat="44.43966" lon="1.00269">
        <ele>151.06</ele>
        <time>2021-05-13T12:58:13Z</time>
      </trkpt>
      <trkpt lat="44.43972" lon="1.00277">
        <ele>152.51</ele>
        <time>2021-05-13T12:58:19Z</time>
      </trkpt>
      <trkpt lat="44.43988" lon="1.00301">
        <ele>153.47</ele>
        <time>2021-05-13T12:58:35Z</time>
      </trkpt>
      <trkpt lat="44.44001" lon="1.00314">
        <ele>154.43</ele>
        <time>2021-05-13T12:58:48Z</time>
      </trkpt>
      <trkpt lat="44.44007" lon="1.00321">
        <ele>154.91</ele>
        <time>2021-05-13T12:58:55Z</time>
      </trkpt>
      <trkpt lat="44.44024" lon="1.00345">
        <ele>155.87</ele>
        <time>2021-05-13T12:59:12Z</time>
      </trkpt>
      <trkpt lat="44.44026" lon="1.00347">
        <ele>155.87</ele>
        <time>2021-05-13T12:59:14Z</time>
      </trkpt>
      <trkpt lat="44.44033" lon="1.00354">
        <ele>156.35</ele>
        <time>2021-05-13T12:59:20Z</time>
      </trkpt>
      <trkpt lat="44.44049" lon="1.00368">
        <ele>156.83</ele>
        <time>2021-05-13T12:59:34Z</time>
      </trkpt>
      <trkpt lat="44.44059" lon="1.00375">
        <ele>157.79</ele>
        <time>2021-05-13T12:59:45Z</time>
      </trkpt>
      <trkpt lat="44.44071" lon="1.0038">
        <ele>158.27</ele>
        <time>2021-05-13T12:59:53Z</time>
      </trkpt>
      <trkpt lat="44.44083" lon="1.00383">
        <ele>158.27</ele>
        <time>2021-05-13T13:00:00Z</time>
      </trkpt>
      <trkpt lat="44.44089" lon="1.00385">
        <ele>158.27</ele>
        <time>2021-05-13T13:00:04Z</time>
      </trkpt>
      <trkpt lat="44.44111" lon="1.00389">
        <ele>160.2</ele>
        <time>2021-05-13T13:00:19Z</time>
      </trkpt>
      <trkpt lat="44.44131" lon="1.00389">
        <ele>160.68</ele>
        <time>2021-05-13T13:00:32Z</time>
      </trkpt>
      <trkpt lat="44.44149" lon="1.00387">
        <ele>162.12</ele>
        <time>2021-05-13T13:00:44Z</time>
      </trkpt>
      <trkpt lat="44.44156" lon="1.00384">
        <ele>163.08</ele>
        <time>2021-05-13T13:00:50Z</time>
      </trkpt>
      <trkpt lat="44.44166" lon="1.00381">
        <ele>163.56</ele>
        <time>2021-05-13T13:01:00Z</time>
      </trkpt>
      <trkpt lat="44.4417" lon="1.00381">
        <ele>164.52</ele>
        <time>2021-05-13T13:01:03Z</time>
      </trkpt>
      <trkpt lat="44.44177" lon="1.00385">
        <ele>165</ele>
        <time>2021-05-13T13:01:08Z</time>
      </trkpt>
      <trkpt lat="44.44185" lon="1.00392">
        <ele>165.48</ele>
        <time>2021-05-13T13:01:15Z</time>
      </trkpt>
      <trkpt lat="44.44201" lon="1.004">
        <ele>166.93</ele>
        <time>2021-05-13T13:01:27Z</time>
      </trkpt>
      <trkpt lat="44.44218" lon="1.0041">
        <ele>167.89</ele>
        <time>2021-05-13T13:01:41Z</time>
      </trkpt>
      <trkpt lat="44.44219" lon="1.0041">
        <ele>167.89</ele>
        <time>2021-05-13T13:01:42Z</time>
      </trkpt>
      <trkpt lat="44.4423" lon="1.00418">
        <ele>168.37</ele>
        <time>2021-05-13T13:01:51Z</time>
      </trkpt>
      <trkpt lat="44.44247" lon="1.0043">
        <ele>170.29</ele>
        <time>2021-05-13T13:02:07Z</time>
      </trkpt>
      <trkpt lat="44.44252" lon="1.00434">
        <ele>171.25</ele>
        <time>2021-05-13T13:02:12Z</time>
      </trkpt>
      <trkpt lat="44.44271" lon="1.00444">
        <ele>172.69</ele>
        <time>2021-05-13T13:02:27Z</time>
      </trkpt>
      <trkpt lat="44.44272" lon="1.00446">
        <ele>173.17</ele>
        <time>2021-05-13T13:02:29Z</time>
      </trkpt>
      <trkpt lat="44.44275" lon="1.00447">
        <ele>173.17</ele>
        <time>2021-05-13T13:02:31Z</time>
      </trkpt>
      <trkpt lat="44.44282" lon="1.00453">
        <ele>174.14</ele>
        <time>2021-05-13T13:02:38Z</time>
      </trkpt>
      <trkpt lat="44.44293" lon="1.00463">
        <ele>175.1</ele>
        <time>2021-05-13T13:02:49Z</time>
      </trkpt>
      <trkpt lat="44.44296" lon="1.00466">
        <ele>175.1</ele>
        <time>2021-05-13T13:02:51Z</time>
      </trkpt>
      <trkpt lat="44.44304" lon="1.00475">
        <ele>176.06</ele>
        <time>2021-05-13T13:02:58Z</time>
      </trkpt>
      <trkpt lat="44.4431" lon="1.00482">
        <ele>177.5</ele>
        <time>2021-05-13T13:03:04Z</time>
      </trkpt>
      <trkpt lat="44.44314" lon="1.00485">
        <ele>177.98</ele>
        <time>2021-05-13T13:03:07Z</time>
      </trkpt>
      <trkpt lat="44.44319" lon="1.00493">
        <ele>178.46</ele>
        <time>2021-05-13T13:03:12Z</time>
      </trkpt>
      <trkpt lat="44.44328" lon="1.00521">
        <ele>179.9</ele>
        <time>2021-05-13T13:03:28Z</time>
      </trkpt>
      <trkpt lat="44.44329" lon="1.00531">
        <ele>180.38</ele>
        <time>2021-05-13T13:03:34Z</time>
      </trkpt>
      <trkpt lat="44.44331" lon="1.00561">
        <ele>181.35</ele>
        <time>2021-05-13T13:03:49Z</time>
      </trkpt>
      <trkpt lat="44.44332" lon="1.00571">
        <ele>181.83</ele>
        <time>2021-05-13T13:03:54Z</time>
      </trkpt>
      <trkpt lat="44.44333" lon="1.0058">
        <ele>182.31</ele>
        <time>2021-05-13T13:03:59Z</time>
      </trkpt>
      <trkpt lat="44.44328" lon="1.00603">
        <ele>184.23</ele>
        <time>2021-05-13T13:04:14Z</time>
      </trkpt>
      <trkpt lat="44.44325" lon="1.00603">
        <ele>184.23</ele>
        <time>2021-05-13T13:04:16Z</time>
      </trkpt>
      <trkpt lat="44.44319" lon="1.00599">
        <ele>184.71</ele>
        <time>2021-05-13T13:04:21Z</time>
      </trkpt>
      <trkpt lat="44.44305" lon="1.00579">
        <ele>185.67</ele>
        <time>2021-05-13T13:04:36Z</time>
      </trkpt>
      <trkpt lat="44.44282" lon="1.00569">
        <ele>187.59</ele>
        <time>2021-05-13T13:04:54Z</time>
      </trkpt>
      <trkpt lat="44.44266" lon="1.00581">
        <ele>189.52</ele>
        <time>2021-05-13T13:05:09Z</time>
      </trkpt>
      <trkpt lat="44.44253" lon="1.00605">
        <ele>191.44</ele>
        <time>2021-05-13T13:05:26Z</time>
      </trkpt>
      <trkpt lat="44.44247" lon="1.00627">
        <ele>193.84</ele>
        <time>2021-05-13T13:05:40Z</time>
      </trkpt>
      <trkpt lat="44.44244" lon="1.00648">
        <ele>195.77</ele>
        <time>2021-05-13T13:05:54Z</time>
      </trkpt>
      <trkpt lat="44.44245" lon="1.00652">
        <ele>196.25</ele>
        <time>2021-05-13T13:05:56Z</time>
      </trkpt>
      <trkpt lat="44.44244" lon="1.00668">
        <ele>198.17</ele>
        <time>2021-05-13T13:06:07Z</time>
      </trkpt>
      <trkpt lat="44.44247" lon="1.00691">
        <ele>201.53</ele>
        <time>2021-05-13T13:06:21Z</time>
      </trkpt>
      <trkpt lat="44.44257" lon="1.00708">
        <ele>203.46</ele>
        <time>2021-05-13T13:06:36Z</time>
      </trkpt>
      <trkpt lat="44.4426" lon="1.00713">
        <ele>204.42</ele>
        <time>2021-05-13T13:06:40Z</time>
      </trkpt>
      <trkpt lat="44.44268" lon="1.00731">
        <ele>205.86</ele>
        <time>2021-05-13T13:06:53Z</time>
      </trkpt>
      <trkpt lat="44.4427" lon="1.00748">
        <ele>207.78</ele>
        <time>2021-05-13T13:07:03Z</time>
      </trkpt>
      <trkpt lat="44.44267" lon="1.00779">
        <ele>209.22</ele>
        <time>2021-05-13T13:07:20Z</time>
      </trkpt>
      <trkpt lat="44.44266" lon="1.00798">
        <ele>211.15</ele>
        <time>2021-05-13T13:07:31Z</time>
      </trkpt>
      <trkpt lat="44.4427" lon="1.00802">
        <ele>212.11</ele>
        <time>2021-05-13T13:07:35Z</time>
      </trkpt>
      <trkpt lat="44.44278" lon="1.00805">
        <ele>213.55</ele>
        <time>2021-05-13T13:07:42Z</time>
      </trkpt>
      <trkpt lat="44.44305" lon="1.00815">
        <ele>214.03</ele>
        <time>2021-05-13T13:08:02Z</time>
      </trkpt>
      <trkpt lat="44.44329" lon="1.00822">
        <ele>214.99</ele>
        <time>2021-05-13T13:08:19Z</time>
      </trkpt>
      <trkpt lat="44.44341" lon="1.00828">
        <ele>215.95</ele>
        <time>2021-05-13T13:08:28Z</time>
      </trkpt>
      <trkpt lat="44.44345" lon="1.00833">
        <ele>215.95</ele>
        <time>2021-05-13T13:08:32Z</time>
      </trkpt>
      <trkpt lat="44.44364" lon="1.00842">
        <ele>217.88</ele>
        <time>2021-05-13T13:08:47Z</time>
      </trkpt>
      <trkpt lat="44.44376" lon="1.00849">
        <ele>218.36</ele>
        <time>2021-05-13T13:08:56Z</time>
      </trkpt>
      <trkpt lat="44.4438" lon="1.00879">
        <ele>220.76</ele>
        <time>2021-05-13T13:09:13Z</time>
      </trkpt>
      <trkpt lat="44.44376" lon="1.00905">
        <ele>223.16</ele>
        <time>2021-05-13T13:09:28Z</time>
      </trkpt>
      <trkpt lat="44.44364" lon="1.00935">
        <ele>225.57</ele>
        <time>2021-05-13T13:09:47Z</time>
      </trkpt>
      <trkpt lat="44.44354" lon="1.00961">
        <ele>227.01</ele>
        <time>2021-05-13T13:10:03Z</time>
      </trkpt>
      <trkpt lat="44.4434" lon="1.00994">
        <ele>227.97</ele>
        <time>2021-05-13T13:10:21Z</time>
      </trkpt>
      <trkpt lat="44.44325" lon="1.01028">
        <ele>228.93</ele>
        <time>2021-05-13T13:10:40Z</time>
      </trkpt>
      <trkpt lat="44.44325" lon="1.01032">
        <ele>228.93</ele>
        <time>2021-05-13T13:10:43Z</time>
      </trkpt>
      <trkpt lat="44.44327" lon="1.01036">
        <ele>228.93</ele>
        <time>2021-05-13T13:10:46Z</time>
      </trkpt>
      <trkpt lat="44.44353" lon="1.01045">
        <ele>229.41</ele>
        <time>2021-05-13T13:11:05Z</time>
      </trkpt>
      <trkpt lat="44.44374" lon="1.01056">
        <ele>229.89</ele>
        <time>2021-05-13T13:11:20Z</time>
      </trkpt>
      <trkpt lat="44.44398" lon="1.01084">
        <ele>230.37</ele>
        <time>2021-05-13T13:11:41Z</time>
      </trkpt>
      <trkpt lat="44.44421" lon="1.01113">
        <ele>230.37</ele>
        <time>2021-05-13T13:12:02Z</time>
      </trkpt>
      <trkpt lat="44.44438" lon="1.01141">
        <ele>230.37</ele>
        <time>2021-05-13T13:12:19Z</time>
      </trkpt>
      <trkpt lat="44.44452" lon="1.01163">
        <ele>229.41</ele>
        <time>2021-05-13T13:12:34Z</time>
      </trkpt>
      <trkpt lat="44.44464" lon="1.01187">
        <ele>228.93</ele>
        <time>2021-05-13T13:12:48Z</time>
      </trkpt>
      <trkpt lat="44.44471" lon="1.01201">
        <ele>227.97</ele>
        <time>2021-05-13T13:12:56Z</time>
      </trkpt>
      <trkpt lat="44.44471" lon="1.01211">
        <ele>227.49</ele>
        <time>2021-05-13T13:13:01Z</time>
      </trkpt>
      <trkpt lat="44.44454" lon="1.01244">
        <ele>227.49</ele>
        <time>2021-05-13T13:13:21Z</time>
      </trkpt>
      <trkpt lat="44.44452" lon="1.01248">
        <ele>227.49</ele>
        <time>2021-05-13T13:13:24Z</time>
      </trkpt>
      <trkpt lat="44.44447" lon="1.01256">
        <ele>227.49</ele>
        <time>2021-05-13T13:13:29Z</time>
      </trkpt>
      <trkpt lat="44.44415" lon="1.01287">
        <ele>227.49</ele>
        <time>2021-05-13T13:13:54Z</time>
      </trkpt>
      <trkpt lat="44.4439" lon="1.01295">
        <ele>227.49</ele>
        <time>2021-05-13T13:14:12Z</time>
      </trkpt>
      <trkpt lat="44.44363" lon="1.01305">
        <ele>227.01</ele>
        <time>2021-05-13T13:14:30Z</time>
      </trkpt>
      <trkpt lat="44.44333" lon="1.01332">
        <ele>225.57</ele>
        <time>2021-05-13T13:14:53Z</time>
      </trkpt>
      <trkpt lat="44.44303" lon="1.01367">
        <ele>224.61</ele>
        <time>2021-05-13T13:15:18Z</time>
      </trkpt>
      <trkpt lat="44.44277" lon="1.01409">
        <ele>222.2</ele>
        <time>2021-05-13T13:15:44Z</time>
      </trkpt>
      <trkpt lat="44.44249" lon="1.01448">
        <ele>220.76</ele>
        <time>2021-05-13T13:16:09Z</time>
      </trkpt>
      <trkpt lat="44.44222" lon="1.01494">
        <ele>218.36</ele>
        <time>2021-05-13T13:16:36Z</time>
      </trkpt>
      <trkpt lat="44.44208" lon="1.01529">
        <ele>216.91</ele>
        <time>2021-05-13T13:16:55Z</time>
      </trkpt>
      <trkpt lat="44.44209" lon="1.01533">
        <ele>216.43</ele>
        <time>2021-05-13T13:16:57Z</time>
      </trkpt>
      <trkpt lat="44.4422" lon="1.01541">
        <ele>216.43</ele>
        <time>2021-05-13T13:17:06Z</time>
      </trkpt>
      <trkpt lat="44.4424" lon="1.0155">
        <ele>219.8</ele>
        <time>2021-05-13T13:17:22Z</time>
      </trkpt>
      <trkpt lat="44.44261" lon="1.01556">
        <ele>220.76</ele>
        <time>2021-05-13T13:17:37Z</time>
      </trkpt>
      <trkpt lat="44.44287" lon="1.01561">
        <ele>222.2</ele>
        <time>2021-05-13T13:17:54Z</time>
      </trkpt>
      <trkpt lat="44.4431" lon="1.01563">
        <ele>223.16</ele>
        <time>2021-05-13T13:18:09Z</time>
      </trkpt>
      <trkpt lat="44.44342" lon="1.01563">
        <ele>224.61</ele>
        <time>2021-05-13T13:18:30Z</time>
      </trkpt>
      <trkpt lat="44.44362" lon="1.01569">
        <ele>223.16</ele>
        <time>2021-05-13T13:18:45Z</time>
      </trkpt>
      <trkpt lat="44.44394" lon="1.01582">
        <ele>220.28</ele>
        <time>2021-05-13T13:19:06Z</time>
      </trkpt>
      <trkpt lat="44.44424" lon="1.01601">
        <ele>218.36</ele>
        <time>2021-05-13T13:19:27Z</time>
      </trkpt>
      <trkpt lat="44.44451" lon="1.01616">
        <ele>217.88</ele>
        <time>2021-05-13T13:19:45Z</time>
      </trkpt>
      <trkpt lat="44.44457" lon="1.01624">
        <ele>217.4</ele>
        <time>2021-05-13T13:19:50Z</time>
      </trkpt>
      <trkpt lat="44.44458" lon="1.01638">
        <ele>216.43</ele>
        <time>2021-05-13T13:19:57Z</time>
      </trkpt>
      <trkpt lat="44.44439" lon="1.0167">
        <ele>213.07</ele>
        <time>2021-05-13T13:20:16Z</time>
      </trkpt>
      <trkpt lat="44.44427" lon="1.01687">
        <ele>209.7</ele>
        <time>2021-05-13T13:20:27Z</time>
      </trkpt>
      <trkpt lat="44.44415" lon="1.01705">
        <ele>206.34</ele>
        <time>2021-05-13T13:20:42Z</time>
      </trkpt>
      <trkpt lat="44.44408" lon="1.01722">
        <ele>204.42</ele>
        <time>2021-05-13T13:20:54Z</time>
      </trkpt>
      <trkpt lat="44.44411" lon="1.01737">
        <ele>202.01</ele>
        <time>2021-05-13T13:21:03Z</time>
      </trkpt>
      <trkpt lat="44.44408" lon="1.01765">
        <ele>198.65</ele>
        <time>2021-05-13T13:21:17Z</time>
      </trkpt>
      <trkpt lat="44.44407" lon="1.01777">
        <ele>198.17</ele>
        <time>2021-05-13T13:21:22Z</time>
      </trkpt>
      <trkpt lat="44.44406" lon="1.01789">
        <ele>197.69</ele>
        <time>2021-05-13T13:21:27Z</time>
      </trkpt>
      <trkpt lat="44.44399" lon="1.01807">
        <ele>195.28</ele>
        <time>2021-05-13T13:21:35Z</time>
      </trkpt>
      <trkpt lat="44.44388" lon="1.01829">
        <ele>191.92</ele>
        <time>2021-05-13T13:21:48Z</time>
      </trkpt>
      <trkpt lat="44.44376" lon="1.01858">
        <ele>190.96</ele>
        <time>2021-05-13T13:22:04Z</time>
      </trkpt>
      <trkpt lat="44.44378" lon="1.01871">
        <ele>190.96</ele>
        <time>2021-05-13T13:22:15Z</time>
      </trkpt>
      <trkpt lat="44.44392" lon="1.01877">
        <ele>190.96</ele>
        <time>2021-05-13T13:22:26Z</time>
      </trkpt>
      <trkpt lat="44.44408" lon="1.01894">
        <ele>190.96</ele>
        <time>2021-05-13T13:22:40Z</time>
      </trkpt>
      <trkpt lat="44.44417" lon="1.01911">
        <ele>190.96</ele>
        <time>2021-05-13T13:22:50Z</time>
      </trkpt>
      <trkpt lat="44.44434" lon="1.0193">
        <ele>190.96</ele>
        <time>2021-05-13T13:23:05Z</time>
      </trkpt>
      <trkpt lat="44.4445" lon="1.01945">
        <ele>189.52</ele>
        <time>2021-05-13T13:23:19Z</time>
      </trkpt>
      <trkpt lat="44.44463" lon="1.01965">
        <ele>187.11</ele>
        <time>2021-05-13T13:23:34Z</time>
      </trkpt>
      <trkpt lat="44.44474" lon="1.01986">
        <ele>184.71</ele>
        <time>2021-05-13T13:23:46Z</time>
      </trkpt>
      <trkpt lat="44.44487" lon="1.02002">
        <ele>182.31</ele>
        <time>2021-05-13T13:23:59Z</time>
      </trkpt>
      <trkpt lat="44.44503" lon="1.02028">
        <ele>179.42</ele>
        <time>2021-05-13T13:24:15Z</time>
      </trkpt>
      <trkpt lat="44.44509" lon="1.02062">
        <ele>177.98</ele>
        <time>2021-05-13T13:24:31Z</time>
      </trkpt>
      <trkpt lat="44.44512" lon="1.02083">
        <ele>177.02</ele>
        <time>2021-05-13T13:24:43Z</time>
      </trkpt>
      <trkpt lat="44.44525" lon="1.02095">
        <ele>177.02</ele>
        <time>2021-05-13T13:24:55Z</time>
      </trkpt>
      <trkpt lat="44.44545" lon="1.02103">
        <ele>176.54</ele>
        <time>2021-05-13T13:25:09Z</time>
      </trkpt>
      <trkpt lat="44.44566" lon="1.02114">
        <ele>176.06</ele>
        <time>2021-05-13T13:25:24Z</time>
      </trkpt>
      <trkpt lat="44.44579" lon="1.02121">
        <ele>176.06</ele>
        <time>2021-05-13T13:25:36Z</time>
      </trkpt>
      <trkpt lat="44.446" lon="1.02124">
        <ele>175.1</ele>
        <time>2021-05-13T13:25:50Z</time>
      </trkpt>
      <trkpt lat="44.44625" lon="1.0212">
        <ele>175.1</ele>
        <time>2021-05-13T13:26:04Z</time>
      </trkpt>
      <trkpt lat="44.44648" lon="1.02117">
        <ele>174.62</ele>
        <time>2021-05-13T13:26:21Z</time>
      </trkpt>
      <trkpt lat="44.44664" lon="1.02118">
        <ele>174.14</ele>
        <time>2021-05-13T13:26:35Z</time>
      </trkpt>
      <trkpt lat="44.4468" lon="1.02124">
        <ele>174.14</ele>
        <time>2021-05-13T13:26:48Z</time>
      </trkpt>
      <trkpt lat="44.44703" lon="1.02135">
        <ele>173.66</ele>
        <time>2021-05-13T13:27:02Z</time>
      </trkpt>
      <trkpt lat="44.4471" lon="1.02137">
        <ele>173.17</ele>
        <time>2021-05-13T13:27:06Z</time>
      </trkpt>
      <trkpt lat="44.44732" lon="1.02145">
        <ele>172.69</ele>
        <time>2021-05-13T13:27:21Z</time>
      </trkpt>
      <trkpt lat="44.44754" lon="1.02152">
        <ele>172.21</ele>
        <time>2021-05-13T13:27:38Z</time>
      </trkpt>
      <trkpt lat="44.44775" lon="1.02155">
        <ele>171.73</ele>
        <time>2021-05-13T13:27:52Z</time>
      </trkpt>
      <trkpt lat="44.44806" lon="1.02152">
        <ele>171.25</ele>
        <time>2021-05-13T13:28:09Z</time>
      </trkpt>
      <trkpt lat="44.44825" lon="1.02154">
        <ele>171.25</ele>
        <time>2021-05-13T13:28:23Z</time>
      </trkpt>
      <trkpt lat="44.44851" lon="1.02159">
        <ele>170.29</ele>
        <time>2021-05-13T13:28:39Z</time>
      </trkpt>
      <trkpt lat="44.44873" lon="1.02163">
        <ele>170.29</ele>
        <time>2021-05-13T13:28:54Z</time>
      </trkpt>
      <trkpt lat="44.44899" lon="1.02171">
        <ele>169.33</ele>
        <time>2021-05-13T13:29:11Z</time>
      </trkpt>
      <trkpt lat="44.44924" lon="1.02188">
        <ele>168.85</ele>
        <time>2021-05-13T13:29:30Z</time>
      </trkpt>
      <trkpt lat="44.44937" lon="1.02208">
        <ele>167.89</ele>
        <time>2021-05-13T13:29:44Z</time>
      </trkpt>
      <trkpt lat="44.44935" lon="1.02232">
        <ele>167.89</ele>
        <time>2021-05-13T13:29:57Z</time>
      </trkpt>
      <trkpt lat="44.44933" lon="1.02235">
        <ele>167.89</ele>
        <time>2021-05-13T13:30:00Z</time>
      </trkpt>
      <trkpt lat="44.44925" lon="1.0224">
        <ele>170.77</ele>
        <time>2021-05-13T13:30:09Z</time>
      </trkpt>
      <trkpt lat="44.44917" lon="1.02252">
        <ele>174.14</ele>
        <time>2021-05-13T13:30:23Z</time>
      </trkpt>
      <trkpt lat="44.44915" lon="1.02253">
        <ele>174.62</ele>
        <time>2021-05-13T13:30:25Z</time>
      </trkpt>
      <trkpt lat="44.44909" lon="1.02254">
        <ele>176.06</ele>
        <time>2021-05-13T13:30:32Z</time>
      </trkpt>
      <trkpt lat="44.44899" lon="1.0226">
        <ele>179.9</ele>
        <time>2021-05-13T13:30:45Z</time>
      </trkpt>
      <trkpt lat="44.44887" lon="1.02267">
        <ele>182.79</ele>
        <time>2021-05-13T13:30:58Z</time>
      </trkpt>
      <trkpt lat="44.44878" lon="1.02276">
        <ele>185.67</ele>
        <time>2021-05-13T13:31:11Z</time>
      </trkpt>
      <trkpt lat="44.44874" lon="1.02292">
        <ele>188.08</ele>
        <time>2021-05-13T13:31:24Z</time>
      </trkpt>
      <trkpt lat="44.44873" lon="1.023">
        <ele>189.04</ele>
        <time>2021-05-13T13:31:29Z</time>
      </trkpt>
      <trkpt lat="44.44872" lon="1.02312">
        <ele>190.48</ele>
        <time>2021-05-13T13:31:37Z</time>
      </trkpt>
      <trkpt lat="44.4487" lon="1.02318">
        <ele>190.96</ele>
        <time>2021-05-13T13:31:41Z</time>
      </trkpt>
      <trkpt lat="44.44855" lon="1.02337">
        <ele>193.36</ele>
        <time>2021-05-13T13:31:58Z</time>
      </trkpt>
      <trkpt lat="44.44837" lon="1.02353">
        <ele>195.28</ele>
        <time>2021-05-13T13:32:15Z</time>
      </trkpt>
      <trkpt lat="44.44833" lon="1.02357">
        <ele>195.77</ele>
        <time>2021-05-13T13:32:19Z</time>
      </trkpt>
      <trkpt lat="44.44816" lon="1.02369">
        <ele>197.69</ele>
        <time>2021-05-13T13:32:34Z</time>
      </trkpt>
      <trkpt lat="44.44794" lon="1.02381">
        <ele>200.09</ele>
        <time>2021-05-13T13:32:51Z</time>
      </trkpt>
      <trkpt lat="44.4479" lon="1.02382">
        <ele>200.09</ele>
        <time>2021-05-13T13:32:54Z</time>
      </trkpt>
      <trkpt lat="44.4477" lon="1.02387">
        <ele>202.01</ele>
        <time>2021-05-13T13:33:09Z</time>
      </trkpt>
      <trkpt lat="44.44751" lon="1.02398">
        <ele>202.98</ele>
        <time>2021-05-13T13:33:24Z</time>
      </trkpt>
      <trkpt lat="44.44733" lon="1.02411">
        <ele>204.9</ele>
        <time>2021-05-13T13:33:39Z</time>
      </trkpt>
      <trkpt lat="44.44713" lon="1.02427">
        <ele>205.38</ele>
        <time>2021-05-13T13:33:54Z</time>
      </trkpt>
      <trkpt lat="44.44696" lon="1.02446">
        <ele>207.3</ele>
        <time>2021-05-13T13:34:10Z</time>
      </trkpt>
      <trkpt lat="44.44677" lon="1.02466">
        <ele>209.7</ele>
        <time>2021-05-13T13:34:27Z</time>
      </trkpt>
      <trkpt lat="44.44665" lon="1.02489">
        <ele>211.15</ele>
        <time>2021-05-13T13:34:42Z</time>
      </trkpt>
      <trkpt lat="44.44658" lon="1.02517">
        <ele>212.11</ele>
        <time>2021-05-13T13:34:57Z</time>
      </trkpt>
      <trkpt lat="44.44652" lon="1.02554">
        <ele>214.03</ele>
        <time>2021-05-13T13:35:16Z</time>
      </trkpt>
      <trkpt lat="44.44651" lon="1.02562">
        <ele>214.51</ele>
        <time>2021-05-13T13:35:20Z</time>
      </trkpt>
      <trkpt lat="44.44646" lon="1.02592">
        <ele>215.47</ele>
        <time>2021-05-13T13:35:35Z</time>
      </trkpt>
      <trkpt lat="44.44642" lon="1.02618">
        <ele>215.95</ele>
        <time>2021-05-13T13:35:49Z</time>
      </trkpt>
      <trkpt lat="44.44637" lon="1.02645">
        <ele>217.4</ele>
        <time>2021-05-13T13:36:03Z</time>
      </trkpt>
      <trkpt lat="44.44635" lon="1.02662">
        <ele>217.4</ele>
        <time>2021-05-13T13:36:11Z</time>
      </trkpt>
      <trkpt lat="44.44624" lon="1.02702">
        <ele>217.88</ele>
        <time>2021-05-13T13:36:31Z</time>
      </trkpt>
      <trkpt lat="44.44618" lon="1.02717">
        <ele>217.88</ele>
        <time>2021-05-13T13:36:39Z</time>
      </trkpt>
      <trkpt lat="44.44614" lon="1.02726">
        <ele>217.88</ele>
        <time>2021-05-13T13:36:44Z</time>
      </trkpt>
      <trkpt lat="44.44602" lon="1.02753">
        <ele>217.88</ele>
        <time>2021-05-13T13:36:59Z</time>
      </trkpt>
      <trkpt lat="44.44596" lon="1.02768">
        <ele>216.91</ele>
        <time>2021-05-13T13:37:07Z</time>
      </trkpt>
      <trkpt lat="44.44589" lon="1.02797">
        <ele>216.43</ele>
        <time>2021-05-13T13:37:21Z</time>
      </trkpt>
      <trkpt lat="44.44583" lon="1.02831">
        <ele>216.43</ele>
        <time>2021-05-13T13:37:37Z</time>
      </trkpt>
      <trkpt lat="44.44577" lon="1.02865">
        <ele>216.43</ele>
        <time>2021-05-13T13:37:54Z</time>
      </trkpt>
      <trkpt lat="44.44571" lon="1.0288">
        <ele>217.88</ele>
        <time>2021-05-13T13:38:03Z</time>
      </trkpt>
      <trkpt lat="44.44558" lon="1.02911">
        <ele>217.88</ele>
        <time>2021-05-13T13:38:20Z</time>
      </trkpt>
      <trkpt lat="44.44541" lon="1.0294">
        <ele>218.84</ele>
        <time>2021-05-13T13:38:38Z</time>
      </trkpt>
      <trkpt lat="44.44525" lon="1.02969">
        <ele>218.84</ele>
        <time>2021-05-13T13:38:55Z</time>
      </trkpt>
      <trkpt lat="44.44513" lon="1.02992">
        <ele>218.84</ele>
        <time>2021-05-13T13:39:09Z</time>
      </trkpt>
      <trkpt lat="44.44498" lon="1.03023">
        <ele>219.32</ele>
        <time>2021-05-13T13:39:26Z</time>
      </trkpt>
      <trkpt lat="44.44477" lon="1.03061">
        <ele>219.32</ele>
        <time>2021-05-13T13:39:47Z</time>
      </trkpt>
      <trkpt lat="44.4446" lon="1.03087">
        <ele>218.36</ele>
        <time>2021-05-13T13:40:05Z</time>
      </trkpt>
      <trkpt lat="44.44441" lon="1.03087">
        <ele>217.88</ele>
        <time>2021-05-13T13:40:19Z</time>
      </trkpt>
      <trkpt lat="44.44425" lon="1.03102">
        <ele>217.88</ele>
        <time>2021-05-13T13:40:33Z</time>
      </trkpt>
      <trkpt lat="44.44421" lon="1.03107">
        <ele>217.4</ele>
        <time>2021-05-13T13:40:37Z</time>
      </trkpt>
      <trkpt lat="44.44402" lon="1.0313">
        <ele>217.4</ele>
        <time>2021-05-13T13:40:53Z</time>
      </trkpt>
      <trkpt lat="44.4439" lon="1.03141">
        <ele>216.43</ele>
        <time>2021-05-13T13:41:05Z</time>
      </trkpt>
      <trkpt lat="44.44388" lon="1.03142">
        <ele>216.43</ele>
        <time>2021-05-13T13:41:07Z</time>
      </trkpt>
      <trkpt lat="44.44382" lon="1.03147">
        <ele>215.95</ele>
        <time>2021-05-13T13:41:11Z</time>
      </trkpt>
      <trkpt lat="44.44357" lon="1.03168">
        <ele>215.47</ele>
        <time>2021-05-13T13:41:28Z</time>
      </trkpt>
      <trkpt lat="44.44333" lon="1.03186">
        <ele>213.55</ele>
        <time>2021-05-13T13:41:46Z</time>
      </trkpt>
      <trkpt lat="44.44313" lon="1.03203">
        <ele>212.11</ele>
        <time>2021-05-13T13:42:01Z</time>
      </trkpt>
      <trkpt lat="44.44292" lon="1.0322">
        <ele>211.63</ele>
        <time>2021-05-13T13:42:16Z</time>
      </trkpt>
      <trkpt lat="44.44268" lon="1.03236">
        <ele>210.19</ele>
        <time>2021-05-13T13:42:33Z</time>
      </trkpt>
      <trkpt lat="44.4424" lon="1.0325">
        <ele>208.74</ele>
        <time>2021-05-13T13:42:52Z</time>
      </trkpt>
      <trkpt lat="44.44215" lon="1.03256">
        <ele>205.86</ele>
        <time>2021-05-13T13:43:09Z</time>
      </trkpt>
      <trkpt lat="44.44192" lon="1.03261">
        <ele>202.98</ele>
        <time>2021-05-13T13:43:25Z</time>
      </trkpt>
      <trkpt lat="44.44173" lon="1.03265">
        <ele>201.05</ele>
        <time>2021-05-13T13:43:39Z</time>
      </trkpt>
      <trkpt lat="44.44152" lon="1.03266">
        <ele>199.13</ele>
        <time>2021-05-13T13:43:53Z</time>
      </trkpt>
      <trkpt lat="44.44125" lon="1.03255">
        <ele>198.17</ele>
        <time>2021-05-13T13:44:10Z</time>
      </trkpt>
      <trkpt lat="44.44099" lon="1.0325">
        <ele>198.17</ele>
        <time>2021-05-13T13:44:27Z</time>
      </trkpt>
      <trkpt lat="44.44081" lon="1.03255">
        <ele>198.17</ele>
        <time>2021-05-13T13:44:40Z</time>
      </trkpt>
      <trkpt lat="44.44064" lon="1.03263">
        <ele>200.09</ele>
        <time>2021-05-13T13:44:52Z</time>
      </trkpt>
      <trkpt lat="44.44042" lon="1.03261">
        <ele>201.05</ele>
        <time>2021-05-13T13:45:08Z</time>
      </trkpt>
      <trkpt lat="44.4404" lon="1.03259">
        <ele>201.53</ele>
        <time>2021-05-13T13:45:10Z</time>
      </trkpt>
      <trkpt lat="44.44028" lon="1.03247">
        <ele>203.46</ele>
        <time>2021-05-13T13:45:22Z</time>
      </trkpt>
      <trkpt lat="44.44024" lon="1.03243">
        <ele>203.94</ele>
        <time>2021-05-13T13:45:27Z</time>
      </trkpt>
      <trkpt lat="44.44017" lon="1.03234">
        <ele>205.38</ele>
        <time>2021-05-13T13:45:33Z</time>
      </trkpt>
      <trkpt lat="44.44005" lon="1.03215">
        <ele>207.3</ele>
        <time>2021-05-13T13:45:47Z</time>
      </trkpt>
      <trkpt lat="44.43991" lon="1.03207">
        <ele>208.74</ele>
        <time>2021-05-13T13:45:59Z</time>
      </trkpt>
      <trkpt lat="44.4399" lon="1.03207">
        <ele>208.74</ele>
        <time>2021-05-13T13:46:00Z</time>
      </trkpt>
      <trkpt lat="44.43982" lon="1.03211">
        <ele>209.22</ele>
        <time>2021-05-13T13:46:07Z</time>
      </trkpt>
      <trkpt lat="44.43965" lon="1.03223">
        <ele>209.7</ele>
        <time>2021-05-13T13:46:21Z</time>
      </trkpt>
      <trkpt lat="44.43946" lon="1.03236">
        <ele>208.26</ele>
        <time>2021-05-13T13:46:35Z</time>
      </trkpt>
      <trkpt lat="44.43945" lon="1.03238">
        <ele>208.26</ele>
        <time>2021-05-13T13:46:36Z</time>
      </trkpt>
      <trkpt lat="44.43931" lon="1.03249">
        <ele>207.78</ele>
        <time>2021-05-13T13:46:47Z</time>
      </trkpt>
      <trkpt lat="44.4391" lon="1.03268">
        <ele>206.34</ele>
        <time>2021-05-13T13:47:04Z</time>
      </trkpt>
      <trkpt lat="44.43891" lon="1.03281">
        <ele>205.86</ele>
        <time>2021-05-13T13:47:18Z</time>
      </trkpt>
      <trkpt lat="44.43873" lon="1.03295">
        <ele>204.9</ele>
        <time>2021-05-13T13:47:32Z</time>
      </trkpt>
      <trkpt lat="44.43864" lon="1.03306">
        <ele>204.9</ele>
        <time>2021-05-13T13:47:39Z</time>
      </trkpt>
      <trkpt lat="44.4386" lon="1.0331">
        <ele>204.42</ele>
        <time>2021-05-13T13:47:42Z</time>
      </trkpt>
      <trkpt lat="44.43851" lon="1.03321">
        <ele>203.94</ele>
        <time>2021-05-13T13:47:50Z</time>
      </trkpt>
      <trkpt lat="44.43833" lon="1.03342">
        <ele>203.94</ele>
        <time>2021-05-13T13:48:06Z</time>
      </trkpt>
      <trkpt lat="44.43814" lon="1.03377">
        <ele>204.9</ele>
        <time>2021-05-13T13:48:26Z</time>
      </trkpt>
      <trkpt lat="44.43799" lon="1.03403">
        <ele>207.3</ele>
        <time>2021-05-13T13:48:44Z</time>
      </trkpt>
      <trkpt lat="44.43787" lon="1.03424">
        <ele>209.22</ele>
        <time>2021-05-13T13:48:58Z</time>
      </trkpt>
      <trkpt lat="44.43769" lon="1.0345">
        <ele>212.11</ele>
        <time>2021-05-13T13:49:16Z</time>
      </trkpt>
      <trkpt lat="44.43752" lon="1.03478">
        <ele>214.03</ele>
        <time>2021-05-13T13:49:34Z</time>
      </trkpt>
      <trkpt lat="44.43736" lon="1.03502">
        <ele>214.99</ele>
        <time>2021-05-13T13:49:50Z</time>
      </trkpt>
      <trkpt lat="44.43718" lon="1.0352">
        <ele>215.95</ele>
        <time>2021-05-13T13:50:04Z</time>
      </trkpt>
      <trkpt lat="44.43702" lon="1.03538">
        <ele>216.91</ele>
        <time>2021-05-13T13:50:18Z</time>
      </trkpt>
      <trkpt lat="44.43684" lon="1.03555">
        <ele>216.91</ele>
        <time>2021-05-13T13:50:33Z</time>
      </trkpt>
      <trkpt lat="44.43666" lon="1.03568">
        <ele>216.91</ele>
        <time>2021-05-13T13:50:46Z</time>
      </trkpt>
      <trkpt lat="44.43655" lon="1.03575">
        <ele>217.4</ele>
        <time>2021-05-13T13:50:55Z</time>
      </trkpt>
      <trkpt lat="44.43638" lon="1.03587">
        <ele>217.88</ele>
        <time>2021-05-13T13:51:08Z</time>
      </trkpt>
      <trkpt lat="44.43617" lon="1.03604">
        <ele>218.36</ele>
        <time>2021-05-13T13:51:24Z</time>
      </trkpt>
      <trkpt lat="44.43616" lon="1.03605">
        <ele>218.36</ele>
        <time>2021-05-13T13:51:25Z</time>
      </trkpt>
      <trkpt lat="44.43609" lon="1.03615">
        <ele>218.36</ele>
        <time>2021-05-13T13:51:31Z</time>
      </trkpt>
      <trkpt lat="44.43609" lon="1.03641">
        <ele>218.36</ele>
        <time>2021-05-13T13:51:44Z</time>
      </trkpt>
      <trkpt lat="44.43612" lon="1.0365">
        <ele>217.4</ele>
        <time>2021-05-13T13:51:49Z</time>
      </trkpt>
      <trkpt lat="44.43616" lon="1.03692">
        <ele>214.03</ele>
        <time>2021-05-13T13:52:08Z</time>
      </trkpt>
      <trkpt lat="44.43606" lon="1.03724">
        <ele>214.03</ele>
        <time>2021-05-13T13:52:25Z</time>
      </trkpt>
      <trkpt lat="44.43588" lon="1.03758">
        <ele>214.03</ele>
        <time>2021-05-13T13:52:44Z</time>
      </trkpt>
      <trkpt lat="44.43572" lon="1.03794">
        <ele>215.95</ele>
        <time>2021-05-13T13:53:04Z</time>
      </trkpt>
      <trkpt lat="44.4357" lon="1.03799">
        <ele>215.95</ele>
        <time>2021-05-13T13:53:07Z</time>
      </trkpt>
      <trkpt lat="44.43562" lon="1.03808">
        <ele>215.95</ele>
        <time>2021-05-13T13:53:14Z</time>
      </trkpt>
      <trkpt lat="44.43534" lon="1.03823">
        <ele>217.88</ele>
        <time>2021-05-13T13:53:34Z</time>
      </trkpt>
      <trkpt lat="44.43506" lon="1.03839">
        <ele>218.84</ele>
        <time>2021-05-13T13:53:53Z</time>
      </trkpt>
      <trkpt lat="44.43483" lon="1.03853">
        <ele>219.8</ele>
        <time>2021-05-13T13:54:09Z</time>
      </trkpt>
      <trkpt lat="44.43455" lon="1.03872">
        <ele>220.76</ele>
        <time>2021-05-13T13:54:29Z</time>
      </trkpt>
      <trkpt lat="44.43433" lon="1.03883">
        <ele>222.2</ele>
        <time>2021-05-13T13:54:46Z</time>
      </trkpt>
      <trkpt lat="44.43422" lon="1.03865">
        <ele>223.16</ele>
        <time>2021-05-13T13:54:59Z</time>
      </trkpt>
      <trkpt lat="44.43403" lon="1.0386">
        <ele>224.61</ele>
        <time>2021-05-13T13:55:12Z</time>
      </trkpt>
      <trkpt lat="44.43382" lon="1.03871">
        <ele>226.05</ele>
        <time>2021-05-13T13:55:28Z</time>
      </trkpt>
      <trkpt lat="44.43352" lon="1.03882">
        <ele>226.05</ele>
        <time>2021-05-13T13:55:50Z</time>
      </trkpt>
      <trkpt lat="44.43352" lon="1.03882">
        <ele>224.61</ele>
        <time>2021-05-13T13:55:53Z</time>
      </trkpt>
      <trkpt lat="44.43351" lon="1.03882">
        <ele>224.61</ele>
        <time>2021-05-13T13:56:05Z</time>
      </trkpt>
      <trkpt lat="44.43348" lon="1.03883">
        <ele>226.05</ele>
        <time>2021-05-13T13:56:17Z</time>
      </trkpt>
      <trkpt lat="44.43348" lon="1.03884">
        <ele>226.05</ele>
        <time>2021-05-13T13:56:35Z</time>
      </trkpt>
      <trkpt lat="44.43348" lon="1.03888">
        <ele>226.05</ele>
        <time>2021-05-13T13:56:37Z</time>
      </trkpt>
      <trkpt lat="44.43356" lon="1.03925">
        <ele>223.64</ele>
        <time>2021-05-13T13:56:56Z</time>
      </trkpt>
      <trkpt lat="44.43363" lon="1.0396">
        <ele>222.68</ele>
        <time>2021-05-13T13:57:14Z</time>
      </trkpt>
      <trkpt lat="44.43375" lon="1.04001">
        <ele>220.76</ele>
        <time>2021-05-13T13:57:35Z</time>
      </trkpt>
      <trkpt lat="44.43389" lon="1.04037">
        <ele>220.28</ele>
        <time>2021-05-13T13:57:55Z</time>
      </trkpt>
      <trkpt lat="44.43403" lon="1.04067">
        <ele>220.28</ele>
        <time>2021-05-13T13:58:13Z</time>
      </trkpt>
      <trkpt lat="44.43405" lon="1.04071">
        <ele>220.28</ele>
        <time>2021-05-13T13:58:20Z</time>
      </trkpt>
      <trkpt lat="44.43407" lon="1.04074">
        <ele>220.28</ele>
        <time>2021-05-13T13:58:22Z</time>
      </trkpt>
      <trkpt lat="44.43408" lon="1.04076">
        <ele>221.72</ele>
        <time>2021-05-13T13:58:24Z</time>
      </trkpt>
      <trkpt lat="44.43411" lon="1.04087">
        <ele>222.2</ele>
        <time>2021-05-13T13:58:30Z</time>
      </trkpt>
      <trkpt lat="44.43397" lon="1.04109">
        <ele>223.16</ele>
        <time>2021-05-13T13:58:46Z</time>
      </trkpt>
      <trkpt lat="44.43376" lon="1.04123">
        <ele>221.72</ele>
        <time>2021-05-13T13:59:02Z</time>
      </trkpt>
      <trkpt lat="44.43372" lon="1.04126">
        <ele>221.72</ele>
        <time>2021-05-13T13:59:05Z</time>
      </trkpt>
      <trkpt lat="44.43366" lon="1.0413">
        <ele>221.72</ele>
        <time>2021-05-13T13:59:10Z</time>
      </trkpt>
      <trkpt lat="44.4334" lon="1.04146">
        <ele>221.72</ele>
        <time>2021-05-13T13:59:28Z</time>
      </trkpt>
      <trkpt lat="44.43326" lon="1.04158">
        <ele>222.68</ele>
        <time>2021-05-13T13:59:40Z</time>
      </trkpt>
      <trkpt lat="44.43311" lon="1.04174">
        <ele>226.05</ele>
        <time>2021-05-13T13:59:55Z</time>
      </trkpt>
      <trkpt lat="44.4331" lon="1.04176">
        <ele>226.05</ele>
        <time>2021-05-13T13:59:56Z</time>
      </trkpt>
      <trkpt lat="44.43308" lon="1.04205">
        <ele>228.45</ele>
        <time>2021-05-13T14:00:13Z</time>
      </trkpt>
      <trkpt lat="44.43298" lon="1.04231">
        <ele>230.37</ele>
        <time>2021-05-13T14:00:29Z</time>
      </trkpt>
      <trkpt lat="44.4328" lon="1.04257">
        <ele>232.3</ele>
        <time>2021-05-13T14:00:47Z</time>
      </trkpt>
      <trkpt lat="44.43261" lon="1.04274">
        <ele>233.26</ele>
        <time>2021-05-13T14:01:03Z</time>
      </trkpt>
      <trkpt lat="44.43238" lon="1.0429">
        <ele>234.7</ele>
        <time>2021-05-13T14:01:21Z</time>
      </trkpt>
      <trkpt lat="44.43215" lon="1.04308">
        <ele>235.66</ele>
        <time>2021-05-13T14:01:39Z</time>
      </trkpt>
      <trkpt lat="44.43189" lon="1.04326">
        <ele>236.14</ele>
        <time>2021-05-13T14:01:58Z</time>
      </trkpt>
      <trkpt lat="44.4317" lon="1.04342">
        <ele>237.58</ele>
        <time>2021-05-13T14:02:14Z</time>
      </trkpt>
      <trkpt lat="44.43162" lon="1.04349">
        <ele>238.54</ele>
        <time>2021-05-13T14:02:20Z</time>
      </trkpt>
      <trkpt lat="44.43156" lon="1.04357">
        <ele>239.02</ele>
        <time>2021-05-13T14:02:26Z</time>
      </trkpt>
      <trkpt lat="44.43151" lon="1.0436">
        <ele>239.02</ele>
        <time>2021-05-13T14:02:30Z</time>
      </trkpt>
      <trkpt lat="44.43136" lon="1.0438">
        <ele>239.02</ele>
        <time>2021-05-13T14:02:44Z</time>
      </trkpt>
      <trkpt lat="44.43132" lon="1.04387">
        <ele>239.02</ele>
        <time>2021-05-13T14:02:48Z</time>
      </trkpt>
      <trkpt lat="44.43124" lon="1.04399">
        <ele>239.02</ele>
        <time>2021-05-13T14:02:55Z</time>
      </trkpt>
      <trkpt lat="44.43111" lon="1.04412">
        <ele>239.02</ele>
        <time>2021-05-13T14:03:07Z</time>
      </trkpt>
      <trkpt lat="44.43097" lon="1.04448">
        <ele>239.51</ele>
        <time>2021-05-13T14:03:25Z</time>
      </trkpt>
      <trkpt lat="44.43088" lon="1.04481">
        <ele>239.51</ele>
        <time>2021-05-13T14:03:42Z</time>
      </trkpt>
      <trkpt lat="44.4308" lon="1.04503">
        <ele>239.51</ele>
        <time>2021-05-13T14:03:55Z</time>
      </trkpt>
      <trkpt lat="44.43077" lon="1.04511">
        <ele>239.51</ele>
        <time>2021-05-13T14:03:59Z</time>
      </trkpt>
      <trkpt lat="44.43074" lon="1.04518">
        <ele>239.99</ele>
        <time>2021-05-13T14:04:03Z</time>
      </trkpt>
      <trkpt lat="44.43067" lon="1.04552">
        <ele>240.95</ele>
        <time>2021-05-13T14:04:19Z</time>
      </trkpt>
      <trkpt lat="44.43056" lon="1.04584">
        <ele>241.43</ele>
        <time>2021-05-13T14:04:35Z</time>
      </trkpt>
      <trkpt lat="44.4304" lon="1.04606">
        <ele>241.43</ele>
        <time>2021-05-13T14:04:52Z</time>
      </trkpt>
      <trkpt lat="44.43036" lon="1.04605">
        <ele>241.91</ele>
        <time>2021-05-13T14:04:55Z</time>
      </trkpt>
      <trkpt lat="44.43023" lon="1.04585">
        <ele>244.79</ele>
        <time>2021-05-13T14:05:12Z</time>
      </trkpt>
      <trkpt lat="44.43017" lon="1.0457">
        <ele>245.75</ele>
        <time>2021-05-13T14:05:21Z</time>
      </trkpt>
      <trkpt lat="44.43" lon="1.04551">
        <ele>248.16</ele>
        <time>2021-05-13T14:05:35Z</time>
      </trkpt>
      <trkpt lat="44.42982" lon="1.04535">
        <ele>249.6</ele>
        <time>2021-05-13T14:05:51Z</time>
      </trkpt>
      <trkpt lat="44.42981" lon="1.04535">
        <ele>249.6</ele>
        <time>2021-05-13T14:05:59Z</time>
      </trkpt>
      <trkpt lat="44.4297" lon="1.04534">
        <ele>249.6</ele>
        <time>2021-05-13T14:06:07Z</time>
      </trkpt>
      <trkpt lat="44.42938" lon="1.04529">
        <ele>249.6</ele>
        <time>2021-05-13T14:06:28Z</time>
      </trkpt>
      <trkpt lat="44.42923" lon="1.04537">
        <ele>250.08</ele>
        <time>2021-05-13T14:06:43Z</time>
      </trkpt>
      <trkpt lat="44.42922" lon="1.04539">
        <ele>250.08</ele>
        <time>2021-05-13T14:06:54Z</time>
      </trkpt>
      <trkpt lat="44.42919" lon="1.04539">
        <ele>250.08</ele>
        <time>2021-05-13T14:06:57Z</time>
      </trkpt>
      <trkpt lat="44.42897" lon="1.04547">
        <ele>250.08</ele>
        <time>2021-05-13T14:07:12Z</time>
      </trkpt>
      <trkpt lat="44.42872" lon="1.04554">
        <ele>250.08</ele>
        <time>2021-05-13T14:07:29Z</time>
      </trkpt>
      <trkpt lat="44.42841" lon="1.04559">
        <ele>247.68</ele>
        <time>2021-05-13T14:07:49Z</time>
      </trkpt>
      <trkpt lat="44.42814" lon="1.04565">
        <ele>247.68</ele>
        <time>2021-05-13T14:08:07Z</time>
      </trkpt>
      <trkpt lat="44.42789" lon="1.04562">
        <ele>247.68</ele>
        <time>2021-05-13T14:08:23Z</time>
      </trkpt>
      <trkpt lat="44.42779" lon="1.04531">
        <ele>246.23</ele>
        <time>2021-05-13T14:08:39Z</time>
      </trkpt>
      <trkpt lat="44.42771" lon="1.04494">
        <ele>245.75</ele>
        <time>2021-05-13T14:08:57Z</time>
      </trkpt>
      <trkpt lat="44.42759" lon="1.04449">
        <ele>245.27</ele>
        <time>2021-05-13T14:09:19Z</time>
      </trkpt>
      <trkpt lat="44.42749" lon="1.04412">
        <ele>245.27</ele>
        <time>2021-05-13T14:09:38Z</time>
      </trkpt>
      <trkpt lat="44.42741" lon="1.0438">
        <ele>245.27</ele>
        <time>2021-05-13T14:09:54Z</time>
      </trkpt>
      <trkpt lat="44.4274" lon="1.04374">
        <ele>246.23</ele>
        <time>2021-05-13T14:09:57Z</time>
      </trkpt>
      <trkpt lat="44.42735" lon="1.0435">
        <ele>249.12</ele>
        <time>2021-05-13T14:10:11Z</time>
      </trkpt>
      <trkpt lat="44.42727" lon="1.0433">
        <ele>251.52</ele>
        <time>2021-05-13T14:10:27Z</time>
      </trkpt>
      <trkpt lat="44.42724" lon="1.04314">
        <ele>254.41</ele>
        <time>2021-05-13T14:10:40Z</time>
      </trkpt>
      <trkpt lat="44.42714" lon="1.0429">
        <ele>256.81</ele>
        <time>2021-05-13T14:10:55Z</time>
      </trkpt>
      <trkpt lat="44.42705" lon="1.04271">
        <ele>258.25</ele>
        <time>2021-05-13T14:11:07Z</time>
      </trkpt>
      <trkpt lat="44.42685" lon="1.04254">
        <ele>258.73</ele>
        <time>2021-05-13T14:11:24Z</time>
      </trkpt>
      <trkpt lat="44.42675" lon="1.04238">
        <ele>258.73</ele>
        <time>2021-05-13T14:11:35Z</time>
      </trkpt>
      <trkpt lat="44.42676" lon="1.04216">
        <ele>257.77</ele>
        <time>2021-05-13T14:11:46Z</time>
      </trkpt>
      <trkpt lat="44.4268" lon="1.042">
        <ele>256.81</ele>
        <time>2021-05-13T14:11:55Z</time>
      </trkpt>
      <trkpt lat="44.42686" lon="1.04182">
        <ele>256.33</ele>
        <time>2021-05-13T14:12:03Z</time>
      </trkpt>
      <trkpt lat="44.42691" lon="1.0414">
        <ele>254.89</ele>
        <time>2021-05-13T14:12:20Z</time>
      </trkpt>
      <trkpt lat="44.42702" lon="1.04102">
        <ele>252.96</ele>
        <time>2021-05-13T14:12:39Z</time>
      </trkpt>
      <trkpt lat="44.42711" lon="1.04069">
        <ele>251.52</ele>
        <time>2021-05-13T14:12:56Z</time>
      </trkpt>
      <trkpt lat="44.4272" lon="1.04034">
        <ele>249.6</ele>
        <time>2021-05-13T14:13:13Z</time>
      </trkpt>
      <trkpt lat="44.42728" lon="1.03999">
        <ele>248.16</ele>
        <time>2021-05-13T14:13:29Z</time>
      </trkpt>
      <trkpt lat="44.42734" lon="1.03964">
        <ele>247.2</ele>
        <time>2021-05-13T14:13:46Z</time>
      </trkpt>
      <trkpt lat="44.4274" lon="1.03932">
        <ele>246.72</ele>
        <time>2021-05-13T14:14:01Z</time>
      </trkpt>
      <trkpt lat="44.42743" lon="1.03911">
        <ele>245.75</ele>
        <time>2021-05-13T14:14:11Z</time>
      </trkpt>
      <trkpt lat="44.4275" lon="1.03879">
        <ele>245.27</ele>
        <time>2021-05-13T14:14:27Z</time>
      </trkpt>
      <trkpt lat="44.42752" lon="1.03872">
        <ele>245.27</ele>
        <time>2021-05-13T14:14:31Z</time>
      </trkpt>
      <trkpt lat="44.42753" lon="1.03861">
        <ele>245.27</ele>
        <time>2021-05-13T14:14:36Z</time>
      </trkpt>
      <trkpt lat="44.42762" lon="1.03825">
        <ele>244.79</ele>
        <time>2021-05-13T14:14:54Z</time>
      </trkpt>
      <trkpt lat="44.4277" lon="1.03788">
        <ele>244.79</ele>
        <time>2021-05-13T14:15:11Z</time>
      </trkpt>
      <trkpt lat="44.42772" lon="1.03779">
        <ele>244.79</ele>
        <time>2021-05-13T14:15:15Z</time>
      </trkpt>
      <trkpt lat="44.42779" lon="1.03749">
        <ele>244.79</ele>
        <time>2021-05-13T14:15:30Z</time>
      </trkpt>
      <trkpt lat="44.42783" lon="1.03737">
        <ele>244.79</ele>
        <time>2021-05-13T14:15:36Z</time>
      </trkpt>
      <trkpt lat="44.4279" lon="1.03717">
        <ele>244.79</ele>
        <time>2021-05-13T14:15:47Z</time>
      </trkpt>
      <trkpt lat="44.42799" lon="1.03692">
        <ele>244.79</ele>
        <time>2021-05-13T14:16:00Z</time>
      </trkpt>
      <trkpt lat="44.42802" lon="1.03687">
        <ele>244.31</ele>
        <time>2021-05-13T14:16:03Z</time>
      </trkpt>
      <trkpt lat="44.428" lon="1.0368">
        <ele>244.31</ele>
        <time>2021-05-13T14:16:07Z</time>
      </trkpt>
      <trkpt lat="44.42793" lon="1.03674">
        <ele>244.31</ele>
        <time>2021-05-13T14:16:14Z</time>
      </trkpt>
      <trkpt lat="44.42783" lon="1.03667">
        <ele>243.35</ele>
        <time>2021-05-13T14:16:23Z</time>
      </trkpt>
      <trkpt lat="44.42772" lon="1.03661">
        <ele>242.87</ele>
        <time>2021-05-13T14:16:32Z</time>
      </trkpt>
      <trkpt lat="44.4276" lon="1.03653">
        <ele>242.39</ele>
        <time>2021-05-13T14:16:42Z</time>
      </trkpt>
      <trkpt lat="44.42756" lon="1.0365">
        <ele>242.39</ele>
        <time>2021-05-13T14:16:45Z</time>
      </trkpt>
      <trkpt lat="44.4274" lon="1.03643">
        <ele>241.91</ele>
        <time>2021-05-13T14:16:55Z</time>
      </trkpt>
      <trkpt lat="44.4272" lon="1.03643">
        <ele>241.43</ele>
        <time>2021-05-13T14:17:08Z</time>
      </trkpt>
      <trkpt lat="44.42699" lon="1.03642">
        <ele>240.47</ele>
        <time>2021-05-13T14:17:23Z</time>
      </trkpt>
      <trkpt lat="44.42679" lon="1.03634">
        <ele>239.99</ele>
        <time>2021-05-13T14:17:36Z</time>
      </trkpt>
      <trkpt lat="44.42669" lon="1.03628">
        <ele>239.99</ele>
        <time>2021-05-13T14:17:44Z</time>
      </trkpt>
      <trkpt lat="44.42663" lon="1.03625">
        <ele>239.99</ele>
        <time>2021-05-13T14:17:49Z</time>
      </trkpt>
      <trkpt lat="44.42639" lon="1.03615">
        <ele>239.99</ele>
        <time>2021-05-13T14:18:04Z</time>
      </trkpt>
      <trkpt lat="44.42628" lon="1.03608">
        <ele>241.43</ele>
        <time>2021-05-13T14:18:13Z</time>
      </trkpt>
      <trkpt lat="44.42608" lon="1.03603">
        <ele>241.43</ele>
        <time>2021-05-13T14:18:28Z</time>
      </trkpt>
      <trkpt lat="44.4259" lon="1.03594">
        <ele>242.39</ele>
        <time>2021-05-13T14:18:41Z</time>
      </trkpt>
      <trkpt lat="44.42571" lon="1.03581">
        <ele>240.95</ele>
        <time>2021-05-13T14:18:55Z</time>
      </trkpt>
      <trkpt lat="44.42563" lon="1.03578">
        <ele>240.95</ele>
        <time>2021-05-13T14:19:00Z</time>
      </trkpt>
      <trkpt lat="44.42546" lon="1.03578">
        <ele>239.99</ele>
        <time>2021-05-13T14:19:14Z</time>
      </trkpt>
      <trkpt lat="44.42539" lon="1.0358">
        <ele>239.99</ele>
        <time>2021-05-13T14:19:19Z</time>
      </trkpt>
      <trkpt lat="44.42522" lon="1.03578">
        <ele>239.99</ele>
        <time>2021-05-13T14:19:31Z</time>
      </trkpt>
      <trkpt lat="44.42516" lon="1.03577">
        <ele>239.99</ele>
        <time>2021-05-13T14:19:35Z</time>
      </trkpt>
      <trkpt lat="44.42508" lon="1.03576">
        <ele>239.02</ele>
        <time>2021-05-13T14:19:40Z</time>
      </trkpt>
      <trkpt lat="44.42497" lon="1.03566">
        <ele>237.1</ele>
        <time>2021-05-13T14:19:48Z</time>
      </trkpt>
      <trkpt lat="44.42495" lon="1.03563">
        <ele>237.1</ele>
        <time>2021-05-13T14:19:51Z</time>
      </trkpt>
      <trkpt lat="44.42487" lon="1.03559">
        <ele>236.62</ele>
        <time>2021-05-13T14:19:57Z</time>
      </trkpt>
      <trkpt lat="44.42469" lon="1.03551">
        <ele>236.62</ele>
        <time>2021-05-13T14:20:10Z</time>
      </trkpt>
      <trkpt lat="44.42445" lon="1.03552">
        <ele>236.14</ele>
        <time>2021-05-13T14:20:26Z</time>
      </trkpt>
      <trkpt lat="44.42437" lon="1.03549">
        <ele>237.58</ele>
        <time>2021-05-13T14:20:33Z</time>
      </trkpt>
      <trkpt lat="44.42414" lon="1.03568">
        <ele>238.54</ele>
        <time>2021-05-13T14:20:51Z</time>
      </trkpt>
      <trkpt lat="44.42394" lon="1.03579">
        <ele>237.1</ele>
        <time>2021-05-13T14:21:06Z</time>
      </trkpt>
      <trkpt lat="44.42364" lon="1.03583">
        <ele>236.62</ele>
        <time>2021-05-13T14:21:26Z</time>
      </trkpt>
      <trkpt lat="44.42334" lon="1.03583">
        <ele>236.14</ele>
        <time>2021-05-13T14:21:46Z</time>
      </trkpt>
      <trkpt lat="44.4231" lon="1.03583">
        <ele>236.14</ele>
        <time>2021-05-13T14:22:03Z</time>
      </trkpt>
      <trkpt lat="44.42286" lon="1.03586">
        <ele>236.14</ele>
        <time>2021-05-13T14:22:18Z</time>
      </trkpt>
      <trkpt lat="44.42253" lon="1.03586">
        <ele>236.14</ele>
        <time>2021-05-13T14:22:38Z</time>
      </trkpt>
      <trkpt lat="44.42229" lon="1.03589">
        <ele>237.58</ele>
        <time>2021-05-13T14:22:55Z</time>
      </trkpt>
      <trkpt lat="44.422" lon="1.03598">
        <ele>238.54</ele>
        <time>2021-05-13T14:23:13Z</time>
      </trkpt>
      <trkpt lat="44.42176" lon="1.03618">
        <ele>239.51</ele>
        <time>2021-05-13T14:23:32Z</time>
      </trkpt>
      <trkpt lat="44.42157" lon="1.03637">
        <ele>239.99</ele>
        <time>2021-05-13T14:23:48Z</time>
      </trkpt>
      <trkpt lat="44.42137" lon="1.03665">
        <ele>240.47</ele>
        <time>2021-05-13T14:24:06Z</time>
      </trkpt>
      <trkpt lat="44.4212" lon="1.03685">
        <ele>240.47</ele>
        <time>2021-05-13T14:24:21Z</time>
      </trkpt>
      <trkpt lat="44.4211" lon="1.03669">
        <ele>239.02</ele>
        <time>2021-05-13T14:24:35Z</time>
      </trkpt>
      <trkpt lat="44.42102" lon="1.03649">
        <ele>239.02</ele>
        <time>2021-05-13T14:24:48Z</time>
      </trkpt>
      <trkpt lat="44.42094" lon="1.03626">
        <ele>239.02</ele>
        <time>2021-05-13T14:25:00Z</time>
      </trkpt>
      <trkpt lat="44.42086" lon="1.03608">
        <ele>239.02</ele>
        <time>2021-05-13T14:25:09Z</time>
      </trkpt>
      <trkpt lat="44.42077" lon="1.03583">
        <ele>239.02</ele>
        <time>2021-05-13T14:25:20Z</time>
      </trkpt>
      <trkpt lat="44.42076" lon="1.03579">
        <ele>239.02</ele>
        <time>2021-05-13T14:25:22Z</time>
      </trkpt>
      <trkpt lat="44.42067" lon="1.03554">
        <ele>238.54</ele>
        <time>2021-05-13T14:25:35Z</time>
      </trkpt>
      <trkpt lat="44.42058" lon="1.03527">
        <ele>238.54</ele>
        <time>2021-05-13T14:25:48Z</time>
      </trkpt>
      <trkpt lat="44.42049" lon="1.03499">
        <ele>238.06</ele>
        <time>2021-05-13T14:26:04Z</time>
      </trkpt>
      <trkpt lat="44.42035" lon="1.03474">
        <ele>238.06</ele>
        <time>2021-05-13T14:26:18Z</time>
      </trkpt>
      <trkpt lat="44.42021" lon="1.03451">
        <ele>238.06</ele>
        <time>2021-05-13T14:26:33Z</time>
      </trkpt>
      <trkpt lat="44.42004" lon="1.03423">
        <ele>238.06</ele>
        <time>2021-05-13T14:26:50Z</time>
      </trkpt>
      <trkpt lat="44.41988" lon="1.03403">
        <ele>238.06</ele>
        <time>2021-05-13T14:27:04Z</time>
      </trkpt>
      <trkpt lat="44.41972" lon="1.03382">
        <ele>237.58</ele>
        <time>2021-05-13T14:27:19Z</time>
      </trkpt>
      <trkpt lat="44.41955" lon="1.03364">
        <ele>236.62</ele>
        <time>2021-05-13T14:27:33Z</time>
      </trkpt>
      <trkpt lat="44.41951" lon="1.03359">
        <ele>236.14</ele>
        <time>2021-05-13T14:27:36Z</time>
      </trkpt>
      <trkpt lat="44.41939" lon="1.03348">
        <ele>235.18</ele>
        <time>2021-05-13T14:27:46Z</time>
      </trkpt>
      <trkpt lat="44.41924" lon="1.0333">
        <ele>233.26</ele>
        <time>2021-05-13T14:27:59Z</time>
      </trkpt>
      <trkpt lat="44.4191" lon="1.03309">
        <ele>231.33</ele>
        <time>2021-05-13T14:28:13Z</time>
      </trkpt>
      <trkpt lat="44.41898" lon="1.03295">
        <ele>230.37</ele>
        <time>2021-05-13T14:28:23Z</time>
      </trkpt>
      <trkpt lat="44.41891" lon="1.03287">
        <ele>229.89</ele>
        <time>2021-05-13T14:28:29Z</time>
      </trkpt>
      <trkpt lat="44.4189" lon="1.03286">
        <ele>229.41</ele>
        <time>2021-05-13T14:28:30Z</time>
      </trkpt>
      <trkpt lat="44.41889" lon="1.03284">
        <ele>229.41</ele>
        <time>2021-05-13T14:28:31Z</time>
      </trkpt>
      <trkpt lat="44.41888" lon="1.03283">
        <ele>229.41</ele>
        <time>2021-05-13T14:28:32Z</time>
      </trkpt>
      <trkpt lat="44.41885" lon="1.03272">
        <ele>227.97</ele>
        <time>2021-05-13T14:28:39Z</time>
      </trkpt>
      <trkpt lat="44.41882" lon="1.03264">
        <ele>227.97</ele>
        <time>2021-05-13T14:28:43Z</time>
      </trkpt>
      <trkpt lat="44.41878" lon="1.03244">
        <ele>227.01</ele>
        <time>2021-05-13T14:28:53Z</time>
      </trkpt>
      <trkpt lat="44.41874" lon="1.03231">
        <ele>226.05</ele>
        <time>2021-05-13T14:29:00Z</time>
      </trkpt>
      <trkpt lat="44.41874" lon="1.03227">
        <ele>226.05</ele>
        <time>2021-05-13T14:29:02Z</time>
      </trkpt>
      <trkpt lat="44.41873" lon="1.03224">
        <ele>226.05</ele>
        <time>2021-05-13T14:29:03Z</time>
      </trkpt>
      <trkpt lat="44.41873" lon="1.03222">
        <ele>226.05</ele>
        <time>2021-05-13T14:29:04Z</time>
      </trkpt>
      <trkpt lat="44.41872" lon="1.0322">
        <ele>226.05</ele>
        <time>2021-05-13T14:29:05Z</time>
      </trkpt>
      <trkpt lat="44.41867" lon="1.03192">
        <ele>224.12</ele>
        <time>2021-05-13T14:29:18Z</time>
      </trkpt>
      <trkpt lat="44.41866" lon="1.0319">
        <ele>224.12</ele>
        <time>2021-05-13T14:29:19Z</time>
      </trkpt>
      <trkpt lat="44.41866" lon="1.03188">
        <ele>224.12</ele>
        <time>2021-05-13T14:29:20Z</time>
      </trkpt>
      <trkpt lat="44.41865" lon="1.03174">
        <ele>223.64</ele>
        <time>2021-05-13T14:29:29Z</time>
      </trkpt>
      <trkpt lat="44.41861" lon="1.03153">
        <ele>223.64</ele>
        <time>2021-05-13T14:29:39Z</time>
      </trkpt>
      <trkpt lat="44.4186" lon="1.0315">
        <ele>223.64</ele>
        <time>2021-05-13T14:29:42Z</time>
      </trkpt>
      <trkpt lat="44.41853" lon="1.0313">
        <ele>223.64</ele>
        <time>2021-05-13T14:29:52Z</time>
      </trkpt>
      <trkpt lat="44.4185" lon="1.03118">
        <ele>225.57</ele>
        <time>2021-05-13T14:29:59Z</time>
      </trkpt>
      <trkpt lat="44.41847" lon="1.03108">
        <ele>225.57</ele>
        <time>2021-05-13T14:30:04Z</time>
      </trkpt>
      <trkpt lat="44.41835" lon="1.03087">
        <ele>225.57</ele>
        <time>2021-05-13T14:30:17Z</time>
      </trkpt>
      <trkpt lat="44.41829" lon="1.03071">
        <ele>225.57</ele>
        <time>2021-05-13T14:30:26Z</time>
      </trkpt>
      <trkpt lat="44.41828" lon="1.03068">
        <ele>225.57</ele>
        <time>2021-05-13T14:30:28Z</time>
      </trkpt>
      <trkpt lat="44.41826" lon="1.03063">
        <ele>225.57</ele>
        <time>2021-05-13T14:30:31Z</time>
      </trkpt>
      <trkpt lat="44.41824" lon="1.03057">
        <ele>225.57</ele>
        <time>2021-05-13T14:30:35Z</time>
      </trkpt>
      <trkpt lat="44.4182" lon="1.03048">
        <ele>225.57</ele>
        <time>2021-05-13T14:30:41Z</time>
      </trkpt>
      <trkpt lat="44.41815" lon="1.0304">
        <ele>224.61</ele>
        <time>2021-05-13T14:30:46Z</time>
      </trkpt>
      <trkpt lat="44.41804" lon="1.03021">
        <ele>223.16</ele>
        <time>2021-05-13T14:30:59Z</time>
      </trkpt>
      <trkpt lat="44.41793" lon="1.02998">
        <ele>221.72</ele>
        <time>2021-05-13T14:31:12Z</time>
      </trkpt>
      <trkpt lat="44.41789" lon="1.02992">
        <ele>221.24</ele>
        <time>2021-05-13T14:31:16Z</time>
      </trkpt>
      <trkpt lat="44.41785" lon="1.02986">
        <ele>221.24</ele>
        <time>2021-05-13T14:31:20Z</time>
      </trkpt>
      <trkpt lat="44.41777" lon="1.02971">
        <ele>220.76</ele>
        <time>2021-05-13T14:31:30Z</time>
      </trkpt>
      <trkpt lat="44.41766" lon="1.02954">
        <ele>220.76</ele>
        <time>2021-05-13T14:31:41Z</time>
      </trkpt>
      <trkpt lat="44.41757" lon="1.02936">
        <ele>220.76</ele>
        <time>2021-05-13T14:31:54Z</time>
      </trkpt>
      <trkpt lat="44.41755" lon="1.02933">
        <ele>222.2</ele>
        <time>2021-05-13T14:31:56Z</time>
      </trkpt>
      <trkpt lat="44.41746" lon="1.02916">
        <ele>223.16</ele>
        <time>2021-05-13T14:32:08Z</time>
      </trkpt>
      <trkpt lat="44.41742" lon="1.0291">
        <ele>223.16</ele>
        <time>2021-05-13T14:32:12Z</time>
      </trkpt>
      <trkpt lat="44.41736" lon="1.02899">
        <ele>223.64</ele>
        <time>2021-05-13T14:32:18Z</time>
      </trkpt>
      <trkpt lat="44.41723" lon="1.02883">
        <ele>225.09</ele>
        <time>2021-05-13T14:32:31Z</time>
      </trkpt>
      <trkpt lat="44.41717" lon="1.02878">
        <ele>225.57</ele>
        <time>2021-05-13T14:32:36Z</time>
      </trkpt>
      <trkpt lat="44.41709" lon="1.02867">
        <ele>226.53</ele>
        <time>2021-05-13T14:32:49Z</time>
      </trkpt>
      <trkpt lat="44.41709" lon="1.02865">
        <ele>226.53</ele>
        <time>2021-05-13T14:32:59Z</time>
      </trkpt>
      <trkpt lat="44.41704" lon="1.02859">
        <ele>226.53</ele>
        <time>2021-05-13T14:33:04Z</time>
      </trkpt>
      <trkpt lat="44.41695" lon="1.02846">
        <ele>227.01</ele>
        <time>2021-05-13T14:33:14Z</time>
      </trkpt>
      <trkpt lat="44.41682" lon="1.02826">
        <ele>227.01</ele>
        <time>2021-05-13T14:33:27Z</time>
      </trkpt>
      <trkpt lat="44.4168" lon="1.02823">
        <ele>227.01</ele>
        <time>2021-05-13T14:33:29Z</time>
      </trkpt>
      <trkpt lat="44.41677" lon="1.02818">
        <ele>227.01</ele>
        <time>2021-05-13T14:33:32Z</time>
      </trkpt>
      <trkpt lat="44.41671" lon="1.02813">
        <ele>227.01</ele>
        <time>2021-05-13T14:33:36Z</time>
      </trkpt>
      <trkpt lat="44.41668" lon="1.02808">
        <ele>226.05</ele>
        <time>2021-05-13T14:33:40Z</time>
      </trkpt>
      <trkpt lat="44.41661" lon="1.02799">
        <ele>225.09</ele>
        <time>2021-05-13T14:33:47Z</time>
      </trkpt>
      <trkpt lat="44.41657" lon="1.02795">
        <ele>224.61</ele>
        <time>2021-05-13T14:33:51Z</time>
      </trkpt>
      <trkpt lat="44.41639" lon="1.02765">
        <ele>223.64</ele>
        <time>2021-05-13T14:34:08Z</time>
      </trkpt>
      <trkpt lat="44.41627" lon="1.02746">
        <ele>222.68</ele>
        <time>2021-05-13T14:34:21Z</time>
      </trkpt>
      <trkpt lat="44.41615" lon="1.02729">
        <ele>221.72</ele>
        <time>2021-05-13T14:34:32Z</time>
      </trkpt>
      <trkpt lat="44.41604" lon="1.02707">
        <ele>221.24</ele>
        <time>2021-05-13T14:34:46Z</time>
      </trkpt>
      <trkpt lat="44.41601" lon="1.027">
        <ele>220.76</ele>
        <time>2021-05-13T14:34:50Z</time>
      </trkpt>
      <trkpt lat="44.4159" lon="1.02684">
        <ele>220.28</ele>
        <time>2021-05-13T14:35:00Z</time>
      </trkpt>
      <trkpt lat="44.41583" lon="1.02677">
        <ele>220.28</ele>
        <time>2021-05-13T14:35:06Z</time>
      </trkpt>
      <trkpt lat="44.41567" lon="1.02668">
        <ele>219.8</ele>
        <time>2021-05-13T14:35:19Z</time>
      </trkpt>
      <trkpt lat="44.41563" lon="1.02666">
        <ele>219.32</ele>
        <time>2021-05-13T14:35:22Z</time>
      </trkpt>
      <trkpt lat="44.41553" lon="1.02656">
        <ele>218.84</ele>
        <time>2021-05-13T14:35:29Z</time>
      </trkpt>
      <trkpt lat="44.41538" lon="1.02644">
        <ele>217.88</ele>
        <time>2021-05-13T14:35:42Z</time>
      </trkpt>
      <trkpt lat="44.41534" lon="1.0264">
        <ele>217.4</ele>
        <time>2021-05-13T14:35:46Z</time>
      </trkpt>
      <trkpt lat="44.4152" lon="1.02619">
        <ele>215.95</ele>
        <time>2021-05-13T14:36:00Z</time>
      </trkpt>
      <trkpt lat="44.4152" lon="1.02617">
        <ele>215.95</ele>
        <time>2021-05-13T14:36:01Z</time>
      </trkpt>
      <trkpt lat="44.41519" lon="1.02613">
        <ele>214.99</ele>
        <time>2021-05-13T14:36:03Z</time>
      </trkpt>
      <trkpt lat="44.41511" lon="1.02588">
        <ele>214.03</ele>
        <time>2021-05-13T14:36:17Z</time>
      </trkpt>
      <trkpt lat="44.41508" lon="1.0258">
        <ele>213.55</ele>
        <time>2021-05-13T14:36:21Z</time>
      </trkpt>
      <trkpt lat="44.41502" lon="1.0257">
        <ele>213.07</ele>
        <time>2021-05-13T14:36:27Z</time>
      </trkpt>
      <trkpt lat="44.415" lon="1.02567">
        <ele>212.59</ele>
        <time>2021-05-13T14:36:29Z</time>
      </trkpt>
      <trkpt lat="44.41486" lon="1.02544">
        <ele>211.15</ele>
        <time>2021-05-13T14:36:44Z</time>
      </trkpt>
      <trkpt lat="44.41475" lon="1.02525">
        <ele>209.7</ele>
        <time>2021-05-13T14:36:56Z</time>
      </trkpt>
      <trkpt lat="44.41463" lon="1.02508">
        <ele>208.74</ele>
        <time>2021-05-13T14:37:09Z</time>
      </trkpt>
      <trkpt lat="44.41456" lon="1.02499">
        <ele>208.26</ele>
        <time>2021-05-13T14:37:16Z</time>
      </trkpt>
      <trkpt lat="44.41445" lon="1.02475">
        <ele>206.82</ele>
        <time>2021-05-13T14:37:30Z</time>
      </trkpt>
      <trkpt lat="44.41433" lon="1.02452">
        <ele>204.9</ele>
        <time>2021-05-13T14:37:44Z</time>
      </trkpt>
      <trkpt lat="44.41429" lon="1.02443">
        <ele>204.42</ele>
        <time>2021-05-13T14:37:49Z</time>
      </trkpt>
      <trkpt lat="44.41417" lon="1.02424">
        <ele>202.98</ele>
        <time>2021-05-13T14:38:02Z</time>
      </trkpt>
      <trkpt lat="44.4141" lon="1.02407">
        <ele>202.01</ele>
        <time>2021-05-13T14:38:12Z</time>
      </trkpt>
      <trkpt lat="44.41404" lon="1.02396">
        <ele>201.05</ele>
        <time>2021-05-13T14:38:19Z</time>
      </trkpt>
      <trkpt lat="44.41402" lon="1.02391">
        <ele>200.57</ele>
        <time>2021-05-13T14:38:22Z</time>
      </trkpt>
      <trkpt lat="44.41398" lon="1.02386">
        <ele>200.09</ele>
        <time>2021-05-13T14:38:26Z</time>
      </trkpt>
      <trkpt lat="44.41396" lon="1.02385">
        <ele>200.09</ele>
        <time>2021-05-13T14:38:28Z</time>
      </trkpt>
      <trkpt lat="44.41392" lon="1.02381">
        <ele>199.61</ele>
        <time>2021-05-13T14:38:31Z</time>
      </trkpt>
      <trkpt lat="44.41386" lon="1.0238">
        <ele>199.13</ele>
        <time>2021-05-13T14:38:36Z</time>
      </trkpt>
      <trkpt lat="44.41369" lon="1.02372">
        <ele>197.21</ele>
        <time>2021-05-13T14:38:50Z</time>
      </trkpt>
      <trkpt lat="44.41367" lon="1.02371">
        <ele>196.73</ele>
        <time>2021-05-13T14:38:52Z</time>
      </trkpt>
      <trkpt lat="44.41363" lon="1.0237">
        <ele>196.73</ele>
        <time>2021-05-13T14:38:55Z</time>
      </trkpt>
      <trkpt lat="44.41355" lon="1.02365">
        <ele>195.77</ele>
        <time>2021-05-13T14:39:01Z</time>
      </trkpt>
      <trkpt lat="44.41337" lon="1.02359">
        <ele>193.84</ele>
        <time>2021-05-13T14:39:15Z</time>
      </trkpt>
      <trkpt lat="44.41322" lon="1.02354">
        <ele>192.4</ele>
        <time>2021-05-13T14:39:26Z</time>
      </trkpt>
      <trkpt lat="44.41319" lon="1.02351">
        <ele>191.92</ele>
        <time>2021-05-13T14:39:29Z</time>
      </trkpt>
      <trkpt lat="44.41316" lon="1.0235">
        <ele>191.44</ele>
        <time>2021-05-13T14:39:31Z</time>
      </trkpt>
      <trkpt lat="44.41306" lon="1.02345">
        <ele>190.48</ele>
        <time>2021-05-13T14:39:39Z</time>
      </trkpt>
      <trkpt lat="44.41293" lon="1.02336">
        <ele>187.59</ele>
        <time>2021-05-13T14:39:52Z</time>
      </trkpt>
      <trkpt lat="44.4128" lon="1.02342">
        <ele>184.23</ele>
        <time>2021-05-13T14:40:04Z</time>
      </trkpt>
      <trkpt lat="44.41275" lon="1.02343">
        <ele>183.75</ele>
        <time>2021-05-13T14:40:08Z</time>
      </trkpt>
      <trkpt lat="44.41258" lon="1.02345">
        <ele>180.87</ele>
        <time>2021-05-13T14:40:22Z</time>
      </trkpt>
      <trkpt lat="44.41247" lon="1.02351">
        <ele>178.94</ele>
        <time>2021-05-13T14:40:31Z</time>
      </trkpt>
      <trkpt lat="44.41238" lon="1.02354">
        <ele>177.5</ele>
        <time>2021-05-13T14:40:38Z</time>
      </trkpt>
      <trkpt lat="44.41232" lon="1.02355">
        <ele>176.54</ele>
        <time>2021-05-13T14:40:42Z</time>
      </trkpt>
      <trkpt lat="44.41231" lon="1.02347">
        <ele>175.58</ele>
        <time>2021-05-13T14:40:47Z</time>
      </trkpt>
      <trkpt lat="44.41232" lon="1.02337">
        <ele>174.62</ele>
        <time>2021-05-13T14:40:53Z</time>
      </trkpt>
      <trkpt lat="44.41235" lon="1.02327">
        <ele>173.66</ele>
        <time>2021-05-13T14:40:59Z</time>
      </trkpt>
      <trkpt lat="44.41237" lon="1.02322">
        <ele>173.17</ele>
        <time>2021-05-13T14:41:02Z</time>
      </trkpt>
      <trkpt lat="44.41241" lon="1.02304">
        <ele>172.21</ele>
        <time>2021-05-13T14:41:11Z</time>
      </trkpt>
      <trkpt lat="44.41254" lon="1.02278">
        <ele>170.29</ele>
        <time>2021-05-13T14:41:27Z</time>
      </trkpt>
      <trkpt lat="44.41257" lon="1.02271">
        <ele>170.29</ele>
        <time>2021-05-13T14:41:31Z</time>
      </trkpt>
      <trkpt lat="44.41268" lon="1.0225">
        <ele>167.89</ele>
        <time>2021-05-13T14:41:45Z</time>
      </trkpt>
      <trkpt lat="44.41268" lon="1.02248">
        <ele>167.89</ele>
        <time>2021-05-13T14:41:46Z</time>
      </trkpt>
      <trkpt lat="44.4128" lon="1.02226">
        <ele>166.45</ele>
        <time>2021-05-13T14:41:59Z</time>
      </trkpt>
      <trkpt lat="44.41285" lon="1.02218">
        <ele>166.45</ele>
        <time>2021-05-13T14:42:04Z</time>
      </trkpt>
      <trkpt lat="44.41292" lon="1.02209">
        <ele>165.96</ele>
        <time>2021-05-13T14:42:11Z</time>
      </trkpt>
      <trkpt lat="44.41294" lon="1.02207">
        <ele>165.48</ele>
        <time>2021-05-13T14:42:13Z</time>
      </trkpt>
      <trkpt lat="44.41305" lon="1.02187">
        <ele>164.52</ele>
        <time>2021-05-13T14:42:25Z</time>
      </trkpt>
      <trkpt lat="44.4131" lon="1.02179">
        <ele>164.52</ele>
        <time>2021-05-13T14:42:30Z</time>
      </trkpt>
      <trkpt lat="44.41311" lon="1.02172">
        <ele>164.52</ele>
        <time>2021-05-13T14:42:34Z</time>
      </trkpt>
      <trkpt lat="44.41311" lon="1.02166">
        <ele>164.52</ele>
        <time>2021-05-13T14:42:37Z</time>
      </trkpt>
      <trkpt lat="44.41312" lon="1.02149">
        <ele>164.04</ele>
        <time>2021-05-13T14:42:47Z</time>
      </trkpt>
      <trkpt lat="44.4131" lon="1.0214">
        <ele>164.04</ele>
        <time>2021-05-13T14:42:52Z</time>
      </trkpt>
      <trkpt lat="44.41309" lon="1.02118">
        <ele>164.04</ele>
        <time>2021-05-13T14:43:04Z</time>
      </trkpt>
      <trkpt lat="44.4131" lon="1.021">
        <ele>164.04</ele>
        <time>2021-05-13T14:43:15Z</time>
      </trkpt>
      <trkpt lat="44.41311" lon="1.02099">
        <ele>164.04</ele>
        <time>2021-05-13T14:43:16Z</time>
      </trkpt>
      <trkpt lat="44.41312" lon="1.02097">
        <ele>164.04</ele>
        <time>2021-05-13T14:43:18Z</time>
      </trkpt>
      <trkpt lat="44.41315" lon="1.02083">
        <ele>165.48</ele>
        <time>2021-05-13T14:43:24Z</time>
      </trkpt>
      <trkpt lat="44.41326" lon="1.02061">
        <ele>165.96</ele>
        <time>2021-05-13T14:43:38Z</time>
      </trkpt>
      <trkpt lat="44.41337" lon="1.02044">
        <ele>165.96</ele>
        <time>2021-05-13T14:43:51Z</time>
      </trkpt>
      <trkpt lat="44.4134" lon="1.02038">
        <ele>165.96</ele>
        <time>2021-05-13T14:43:54Z</time>
      </trkpt>
      <trkpt lat="44.41345" lon="1.02029">
        <ele>165.96</ele>
        <time>2021-05-13T14:43:59Z</time>
      </trkpt>
      <trkpt lat="44.41347" lon="1.02027">
        <ele>165.96</ele>
        <time>2021-05-13T14:44:01Z</time>
      </trkpt>
      <trkpt lat="44.41349" lon="1.0202">
        <ele>165.96</ele>
        <time>2021-05-13T14:44:05Z</time>
      </trkpt>
      <trkpt lat="44.41354" lon="1.01998">
        <ele>165.96</ele>
        <time>2021-05-13T14:44:17Z</time>
      </trkpt>
      <trkpt lat="44.41356" lon="1.01993">
        <ele>165.96</ele>
        <time>2021-05-13T14:44:20Z</time>
      </trkpt>
      <trkpt lat="44.41363" lon="1.01971">
        <ele>167.89</ele>
        <time>2021-05-13T14:44:34Z</time>
      </trkpt>
      <trkpt lat="44.41371" lon="1.01952">
        <ele>170.29</ele>
        <time>2021-05-13T14:44:48Z</time>
      </trkpt>
      <trkpt lat="44.41374" lon="1.01938">
        <ele>171.73</ele>
        <time>2021-05-13T14:44:56Z</time>
      </trkpt>
      <trkpt lat="44.41375" lon="1.01929">
        <ele>172.21</ele>
        <time>2021-05-13T14:45:02Z</time>
      </trkpt>
      <trkpt lat="44.41373" lon="1.0191">
        <ele>173.17</ele>
        <time>2021-05-13T14:45:12Z</time>
      </trkpt>
      <trkpt lat="44.41365" lon="1.01889">
        <ele>174.14</ele>
        <time>2021-05-13T14:45:26Z</time>
      </trkpt>
      <trkpt lat="44.41358" lon="1.01873">
        <ele>175.1</ele>
        <time>2021-05-13T14:45:36Z</time>
      </trkpt>
      <trkpt lat="44.41347" lon="1.01851">
        <ele>175.1</ele>
        <time>2021-05-13T14:45:50Z</time>
      </trkpt>
      <trkpt lat="44.4134" lon="1.01843">
        <ele>173.66</ele>
        <time>2021-05-13T14:45:57Z</time>
      </trkpt>
      <trkpt lat="44.41334" lon="1.01828">
        <ele>172.69</ele>
        <time>2021-05-13T14:46:06Z</time>
      </trkpt>
      <trkpt lat="44.41332" lon="1.01819">
        <ele>172.21</ele>
        <time>2021-05-13T14:46:12Z</time>
      </trkpt>
      <trkpt lat="44.41334" lon="1.018">
        <ele>171.25</ele>
        <time>2021-05-13T14:46:22Z</time>
      </trkpt>
      <trkpt lat="44.4134" lon="1.01771">
        <ele>168.37</ele>
        <time>2021-05-13T14:46:37Z</time>
      </trkpt>
      <trkpt lat="44.41341" lon="1.01763">
        <ele>166.93</ele>
        <time>2021-05-13T14:46:41Z</time>
      </trkpt>
      <trkpt lat="44.41344" lon="1.01749">
        <ele>165.96</ele>
        <time>2021-05-13T14:46:50Z</time>
      </trkpt>
      <trkpt lat="44.41346" lon="1.01742">
        <ele>164.52</ele>
        <time>2021-05-13T14:46:58Z</time>
      </trkpt>
      <trkpt lat="44.41348" lon="1.0174">
        <ele>164.52</ele>
        <time>2021-05-13T14:47:00Z</time>
      </trkpt>
      <trkpt lat="44.41366" lon="1.01731">
        <ele>164.04</ele>
        <time>2021-05-13T14:47:15Z</time>
      </trkpt>
      <trkpt lat="44.41382" lon="1.01736">
        <ele>162.12</ele>
        <time>2021-05-13T14:47:28Z</time>
      </trkpt>
      <trkpt lat="44.4139" lon="1.01746">
        <ele>161.16</ele>
        <time>2021-05-13T14:47:34Z</time>
      </trkpt>
      <trkpt lat="44.41406" lon="1.01759">
        <ele>159.72</ele>
        <time>2021-05-13T14:47:47Z</time>
      </trkpt>
      <trkpt lat="44.41421" lon="1.01768">
        <ele>159.72</ele>
        <time>2021-05-13T14:47:59Z</time>
      </trkpt>
      <trkpt lat="44.41434" lon="1.0177">
        <ele>159.72</ele>
        <time>2021-05-13T14:48:11Z</time>
      </trkpt>
      <trkpt lat="44.41437" lon="1.01765">
        <ele>159.72</ele>
        <time>2021-05-13T14:48:15Z</time>
      </trkpt>
      <trkpt lat="44.41438" lon="1.01762">
        <ele>159.72</ele>
        <time>2021-05-13T14:48:17Z</time>
      </trkpt>
      <trkpt lat="44.41438" lon="1.01755">
        <ele>159.72</ele>
        <time>2021-05-13T14:48:22Z</time>
      </trkpt>
      <trkpt lat="44.41439" lon="1.01751">
        <ele>161.16</ele>
        <time>2021-05-13T14:48:24Z</time>
      </trkpt>
      <trkpt lat="44.41439" lon="1.01749">
        <ele>161.16</ele>
        <time>2021-05-13T14:48:25Z</time>
      </trkpt>
      <trkpt lat="44.41446" lon="1.01729">
        <ele>162.12</ele>
        <time>2021-05-13T14:48:40Z</time>
      </trkpt>
      <trkpt lat="44.41447" lon="1.01728">
        <ele>162.12</ele>
        <time>2021-05-13T14:48:42Z</time>
      </trkpt>
      <trkpt lat="44.41451" lon="1.01721">
        <ele>163.08</ele>
        <time>2021-05-13T14:48:47Z</time>
      </trkpt>
      <trkpt lat="44.41463" lon="1.01721">
        <ele>165.48</ele>
        <time>2021-05-13T14:49:00Z</time>
      </trkpt>
      <trkpt lat="44.41471" lon="1.01734">
        <ele>167.41</ele>
        <time>2021-05-13T14:49:10Z</time>
      </trkpt>
      <trkpt lat="44.41481" lon="1.01752">
        <ele>169.33</ele>
        <time>2021-05-13T14:49:24Z</time>
      </trkpt>
      <trkpt lat="44.41489" lon="1.01766">
        <ele>171.25</ele>
        <time>2021-05-13T14:49:36Z</time>
      </trkpt>
      <trkpt lat="44.41496" lon="1.01778">
        <ele>173.17</ele>
        <time>2021-05-13T14:49:47Z</time>
      </trkpt>
      <trkpt lat="44.41509" lon="1.01785">
        <ele>175.1</ele>
        <time>2021-05-13T14:50:00Z</time>
      </trkpt>
      <trkpt lat="44.41514" lon="1.01787">
        <ele>175.58</ele>
        <time>2021-05-13T14:50:04Z</time>
      </trkpt>
      <trkpt lat="44.41535" lon="1.01802">
        <ele>177.02</ele>
        <time>2021-05-13T14:50:22Z</time>
      </trkpt>
      <trkpt lat="44.41556" lon="1.01811">
        <ele>178.46</ele>
        <time>2021-05-13T14:50:39Z</time>
      </trkpt>
      <trkpt lat="44.41578" lon="1.01814">
        <ele>178.94</ele>
        <time>2021-05-13T14:50:55Z</time>
      </trkpt>
      <trkpt lat="44.41599" lon="1.0182">
        <ele>179.42</ele>
        <time>2021-05-13T14:51:11Z</time>
      </trkpt>
      <trkpt lat="44.416" lon="1.0182">
        <ele>179.42</ele>
        <time>2021-05-13T14:51:13Z</time>
      </trkpt>
      <trkpt lat="44.41605" lon="1.01821">
        <ele>179.42</ele>
        <time>2021-05-13T14:51:16Z</time>
      </trkpt>
      <trkpt lat="44.41629" lon="1.0183">
        <ele>179.9</ele>
        <time>2021-05-13T14:51:33Z</time>
      </trkpt>
      <trkpt lat="44.41647" lon="1.01834">
        <ele>180.38</ele>
        <time>2021-05-13T14:51:46Z</time>
      </trkpt>
      <trkpt lat="44.4166" lon="1.01834">
        <ele>180.87</ele>
        <time>2021-05-13T14:51:55Z</time>
      </trkpt>
      <trkpt lat="44.41664" lon="1.01833">
        <ele>180.87</ele>
        <time>2021-05-13T14:51:58Z</time>
      </trkpt>
      <trkpt lat="44.41666" lon="1.01832">
        <ele>180.87</ele>
        <time>2021-05-13T14:52:00Z</time>
      </trkpt>
      <trkpt lat="44.41674" lon="1.0183">
        <ele>180.87</ele>
        <time>2021-05-13T14:52:06Z</time>
      </trkpt>
      <trkpt lat="44.41694" lon="1.01828">
        <ele>181.83</ele>
        <time>2021-05-13T14:52:21Z</time>
      </trkpt>
      <trkpt lat="44.41702" lon="1.01847">
        <ele>182.31</ele>
        <time>2021-05-13T14:52:34Z</time>
      </trkpt>
      <trkpt lat="44.41713" lon="1.0187">
        <ele>182.31</ele>
        <time>2021-05-13T14:52:48Z</time>
      </trkpt>
      <trkpt lat="44.41722" lon="1.01892">
        <ele>182.31</ele>
        <time>2021-05-13T14:53:02Z</time>
      </trkpt>
      <trkpt lat="44.41732" lon="1.01911">
        <ele>184.71</ele>
        <time>2021-05-13T14:53:15Z</time>
      </trkpt>
      <trkpt lat="44.41742" lon="1.01934">
        <ele>186.15</ele>
        <time>2021-05-13T14:53:29Z</time>
      </trkpt>
      <trkpt lat="44.41745" lon="1.01945">
        <ele>187.11</ele>
        <time>2021-05-13T14:53:37Z</time>
      </trkpt>
      <trkpt lat="44.41745" lon="1.01966">
        <ele>188.08</ele>
        <time>2021-05-13T14:53:48Z</time>
      </trkpt>
      <trkpt lat="44.41746" lon="1.0197">
        <ele>188.56</ele>
        <time>2021-05-13T14:53:51Z</time>
      </trkpt>
      <trkpt lat="44.41749" lon="1.0198">
        <ele>189.52</ele>
        <time>2021-05-13T14:53:59Z</time>
      </trkpt>
      <trkpt lat="44.41753" lon="1.01996">
        <ele>190.96</ele>
        <time>2021-05-13T14:54:09Z</time>
      </trkpt>
      <trkpt lat="44.41758" lon="1.02007">
        <ele>191.92</ele>
        <time>2021-05-13T14:54:18Z</time>
      </trkpt>
      <trkpt lat="44.4176" lon="1.02009">
        <ele>191.92</ele>
        <time>2021-05-13T14:54:20Z</time>
      </trkpt>
      <trkpt lat="44.41763" lon="1.02013">
        <ele>192.4</ele>
        <time>2021-05-13T14:54:23Z</time>
      </trkpt>
      <trkpt lat="44.41767" lon="1.02022">
        <ele>192.4</ele>
        <time>2021-05-13T14:54:28Z</time>
      </trkpt>
      <trkpt lat="44.41771" lon="1.02031">
        <ele>193.36</ele>
        <time>2021-05-13T14:54:34Z</time>
      </trkpt>
      <trkpt lat="44.41785" lon="1.02037">
        <ele>193.84</ele>
        <time>2021-05-13T14:54:46Z</time>
      </trkpt>
      <trkpt lat="44.41791" lon="1.02038">
        <ele>194.32</ele>
        <time>2021-05-13T14:54:51Z</time>
      </trkpt>
      <trkpt lat="44.41798" lon="1.02045">
        <ele>194.8</ele>
        <time>2021-05-13T14:54:58Z</time>
      </trkpt>
      <trkpt lat="44.41811" lon="1.02069">
        <ele>195.77</ele>
        <time>2021-05-13T14:55:14Z</time>
      </trkpt>
      <trkpt lat="44.41822" lon="1.0209">
        <ele>197.21</ele>
        <time>2021-05-13T14:55:30Z</time>
      </trkpt>
      <trkpt lat="44.41826" lon="1.02106">
        <ele>197.69</ele>
        <time>2021-05-13T14:55:41Z</time>
      </trkpt>
      <trkpt lat="44.4183" lon="1.02116">
        <ele>198.17</ele>
        <time>2021-05-13T14:55:48Z</time>
      </trkpt>
      <trkpt lat="44.41839" lon="1.02134">
        <ele>198.65</ele>
        <time>2021-05-13T14:56:01Z</time>
      </trkpt>
      <trkpt lat="44.41849" lon="1.02153">
        <ele>198.65</ele>
        <time>2021-05-13T14:56:14Z</time>
      </trkpt>
      <trkpt lat="44.41865" lon="1.02178">
        <ele>199.13</ele>
        <time>2021-05-13T14:56:29Z</time>
      </trkpt>
      <trkpt lat="44.41875" lon="1.02197">
        <ele>200.09</ele>
        <time>2021-05-13T14:56:42Z</time>
      </trkpt>
      <trkpt lat="44.41876" lon="1.02199">
        <ele>200.09</ele>
        <time>2021-05-13T14:56:43Z</time>
      </trkpt>
      <trkpt lat="44.41889" lon="1.0222">
        <ele>201.53</ele>
        <time>2021-05-13T14:56:57Z</time>
      </trkpt>
      <trkpt lat="44.41902" lon="1.02238">
        <ele>202.01</ele>
        <time>2021-05-13T14:57:10Z</time>
      </trkpt>
      <trkpt lat="44.41914" lon="1.0226">
        <ele>203.94</ele>
        <time>2021-05-13T14:57:26Z</time>
      </trkpt>
      <trkpt lat="44.41924" lon="1.02275">
        <ele>204.9</ele>
        <time>2021-05-13T14:57:37Z</time>
      </trkpt>
      <trkpt lat="44.41937" lon="1.02298">
        <ele>205.86</ele>
        <time>2021-05-13T14:57:53Z</time>
      </trkpt>
      <trkpt lat="44.4195" lon="1.02318">
        <ele>206.34</ele>
        <time>2021-05-13T14:58:07Z</time>
      </trkpt>
      <trkpt lat="44.41965" lon="1.02341">
        <ele>206.82</ele>
        <time>2021-05-13T14:58:21Z</time>
      </trkpt>
      <trkpt lat="44.41966" lon="1.02344">
        <ele>206.82</ele>
        <time>2021-05-13T14:58:23Z</time>
      </trkpt>
      <trkpt lat="44.41972" lon="1.02353">
        <ele>207.3</ele>
        <time>2021-05-13T14:58:30Z</time>
      </trkpt>
      <trkpt lat="44.41974" lon="1.02357">
        <ele>207.3</ele>
        <time>2021-05-13T14:58:33Z</time>
      </trkpt>
      <trkpt lat="44.41978" lon="1.02365">
        <ele>207.78</ele>
        <time>2021-05-13T14:58:37Z</time>
      </trkpt>
      <trkpt lat="44.41994" lon="1.0239">
        <ele>209.7</ele>
        <time>2021-05-13T14:58:55Z</time>
      </trkpt>
      <trkpt lat="44.42002" lon="1.02401">
        <ele>211.15</ele>
        <time>2021-05-13T14:59:04Z</time>
      </trkpt>
      <trkpt lat="44.42003" lon="1.02404">
        <ele>211.15</ele>
        <time>2021-05-13T14:59:06Z</time>
      </trkpt>
      <trkpt lat="44.42007" lon="1.02412">
        <ele>211.63</ele>
        <time>2021-05-13T14:59:11Z</time>
      </trkpt>
      <trkpt lat="44.42016" lon="1.02427">
        <ele>213.07</ele>
        <time>2021-05-13T14:59:22Z</time>
      </trkpt>
      <trkpt lat="44.42028" lon="1.02447">
        <ele>214.99</ele>
        <time>2021-05-13T14:59:37Z</time>
      </trkpt>
      <trkpt lat="44.42036" lon="1.0246">
        <ele>216.91</ele>
        <time>2021-05-13T14:59:49Z</time>
      </trkpt>
      <trkpt lat="44.4204" lon="1.02461">
        <ele>216.91</ele>
        <time>2021-05-13T14:59:52Z</time>
      </trkpt>
      <trkpt lat="44.4205" lon="1.02455">
        <ele>216.91</ele>
        <time>2021-05-13T14:59:58Z</time>
      </trkpt>
      <trkpt lat="44.4207" lon="1.02426">
        <ele>215.95</ele>
        <time>2021-05-13T15:00:18Z</time>
      </trkpt>
      <trkpt lat="44.42072" lon="1.02425">
        <ele>215.95</ele>
        <time>2021-05-13T15:00:19Z</time>
      </trkpt>
      <trkpt lat="44.42092" lon="1.02387">
        <ele>214.99</ele>
        <time>2021-05-13T15:00:43Z</time>
      </trkpt>
      <trkpt lat="44.42119" lon="1.02381">
        <ele>214.03</ele>
        <time>2021-05-13T15:01:02Z</time>
      </trkpt>
      <trkpt lat="44.42156" lon="1.02391">
        <ele>213.55</ele>
        <time>2021-05-13T15:01:28Z</time>
      </trkpt>
      <trkpt lat="44.42187" lon="1.02393">
        <ele>213.55</ele>
        <time>2021-05-13T15:01:49Z</time>
      </trkpt>
      <trkpt lat="44.42199" lon="1.0236">
        <ele>213.07</ele>
        <time>2021-05-13T15:02:08Z</time>
      </trkpt>
      <trkpt lat="44.42213" lon="1.02308">
        <ele>211.15</ele>
        <time>2021-05-13T15:02:34Z</time>
      </trkpt>
      <trkpt lat="44.42233" lon="1.02272">
        <ele>210.67</ele>
        <time>2021-05-13T15:02:56Z</time>
      </trkpt>
      <trkpt lat="44.42251" lon="1.02239">
        <ele>209.7</ele>
        <time>2021-05-13T15:03:16Z</time>
      </trkpt>
      <trkpt lat="44.42272" lon="1.02214">
        <ele>208.74</ele>
        <time>2021-05-13T15:03:34Z</time>
      </trkpt>
      <trkpt lat="44.42291" lon="1.02184">
        <ele>207.3</ele>
        <time>2021-05-13T15:03:54Z</time>
      </trkpt>
      <trkpt lat="44.42317" lon="1.02145">
        <ele>205.86</ele>
        <time>2021-05-13T15:04:20Z</time>
      </trkpt>
      <trkpt lat="44.4234" lon="1.02113">
        <ele>204.9</ele>
        <time>2021-05-13T15:04:43Z</time>
      </trkpt>
      <trkpt lat="44.42365" lon="1.02083">
        <ele>204.42</ele>
        <time>2021-05-13T15:05:06Z</time>
      </trkpt>
      <trkpt lat="44.42392" lon="1.02059">
        <ele>203.94</ele>
        <time>2021-05-13T15:05:28Z</time>
      </trkpt>
      <trkpt lat="44.42422" lon="1.02047">
        <ele>203.46</ele>
        <time>2021-05-13T15:05:49Z</time>
      </trkpt>
      <trkpt lat="44.42456" lon="1.02045">
        <ele>203.46</ele>
        <time>2021-05-13T15:06:13Z</time>
      </trkpt>
      <trkpt lat="44.42483" lon="1.0203">
        <ele>203.46</ele>
        <time>2021-05-13T15:06:34Z</time>
      </trkpt>
      <trkpt lat="44.42509" lon="1.02007">
        <ele>202.49</ele>
        <time>2021-05-13T15:06:55Z</time>
      </trkpt>
      <trkpt lat="44.42531" lon="1.01981">
        <ele>202.49</ele>
        <time>2021-05-13T15:07:15Z</time>
      </trkpt>
      <trkpt lat="44.42554" lon="1.01956">
        <ele>202.49</ele>
        <time>2021-05-13T15:07:35Z</time>
      </trkpt>
      <trkpt lat="44.42576" lon="1.01922">
        <ele>201.53</ele>
        <time>2021-05-13T15:07:58Z</time>
      </trkpt>
      <trkpt lat="44.42598" lon="1.01891">
        <ele>201.53</ele>
        <time>2021-05-13T15:08:19Z</time>
      </trkpt>
      <trkpt lat="44.42616" lon="1.01862">
        <ele>201.53</ele>
        <time>2021-05-13T15:08:38Z</time>
      </trkpt>
      <trkpt lat="44.42641" lon="1.01828">
        <ele>201.53</ele>
        <time>2021-05-13T15:09:03Z</time>
      </trkpt>
      <trkpt lat="44.4266" lon="1.01802">
        <ele>202.98</ele>
        <time>2021-05-13T15:09:21Z</time>
      </trkpt>
      <trkpt lat="44.42679" lon="1.01772">
        <ele>203.94</ele>
        <time>2021-05-13T15:09:42Z</time>
      </trkpt>
      <trkpt lat="44.42698" lon="1.01743">
        <ele>205.38</ele>
        <time>2021-05-13T15:10:02Z</time>
      </trkpt>
      <trkpt lat="44.42719" lon="1.01714">
        <ele>206.82</ele>
        <time>2021-05-13T15:10:23Z</time>
      </trkpt>
      <trkpt lat="44.42739" lon="1.01686">
        <ele>208.74</ele>
        <time>2021-05-13T15:10:43Z</time>
      </trkpt>
      <trkpt lat="44.42757" lon="1.01664">
        <ele>211.15</ele>
        <time>2021-05-13T15:11:01Z</time>
      </trkpt>
      <trkpt lat="44.42777" lon="1.01646">
        <ele>214.03</ele>
        <time>2021-05-13T15:11:19Z</time>
      </trkpt>
      <trkpt lat="44.42802" lon="1.01632">
        <ele>215.47</ele>
        <time>2021-05-13T15:11:39Z</time>
      </trkpt>
      <trkpt lat="44.42829" lon="1.01624">
        <ele>216.91</ele>
        <time>2021-05-13T15:11:59Z</time>
      </trkpt>
      <trkpt lat="44.42856" lon="1.01621">
        <ele>218.36</ele>
        <time>2021-05-13T15:12:19Z</time>
      </trkpt>
      <trkpt lat="44.42884" lon="1.01619">
        <ele>219.32</ele>
        <time>2021-05-13T15:12:39Z</time>
      </trkpt>
      <trkpt lat="44.42907" lon="1.01623">
        <ele>219.8</ele>
        <time>2021-05-13T15:12:56Z</time>
      </trkpt>
      <trkpt lat="44.42939" lon="1.01626">
        <ele>220.76</ele>
        <time>2021-05-13T15:13:19Z</time>
      </trkpt>
      <trkpt lat="44.42951" lon="1.01625">
        <ele>219.32</ele>
        <time>2021-05-13T15:13:28Z</time>
      </trkpt>
      <trkpt lat="44.42979" lon="1.01624">
        <ele>218.36</ele>
        <time>2021-05-13T15:13:48Z</time>
      </trkpt>
      <trkpt lat="44.43002" lon="1.01619">
        <ele>217.4</ele>
        <time>2021-05-13T15:14:08Z</time>
      </trkpt>
      <trkpt lat="44.43002" lon="1.01619">
        <ele>217.4</ele>
        <time>2021-05-13T15:14:18Z</time>
      </trkpt>
      <trkpt lat="44.43003" lon="1.01619">
        <ele>217.4</ele>
        <time>2021-05-13T15:14:34Z</time>
      </trkpt>
      <trkpt lat="44.43003" lon="1.01618">
        <ele>215.95</ele>
        <time>2021-05-13T15:14:55Z</time>
      </trkpt>
    </trkseg>
  </trk>
</gpx>